<?xml version="1.0" encoding="UTF-8" standalone="no" ?>
<gpx xmlns="http://www.topografix.com/GPX/1/1" xmlns:xsi="http://www.w3.org/2001/XMLSchema-instance" xsi:schemaLocation="http://www.topografix.com/GPX/1/1 http://www.topografix.com/GPX/1/1/gpx.xsd" version="1.1" creator="VisuGPX - https://www.visugpx.com">
  <metadata>
    <name>Vtt Melve</name>
    <desc><![CDATA[Circuit sur routes,chemins forestiers et sentiers,agréable,peu technique et condition physique moyenne. ]]></desc>
  </metadata>
  <trk>
    <name><![CDATA[Tracé actuel: 26 AOU 2014 09:17]]></name>
    <trkseg>
      <trkpt lat="44.33295" lon="6.01589">
        <ele>722.75</ele>
        <time>2014-08-26T07:17:59Z</time>
      </trkpt>
      <trkpt lat="44.33296" lon="6.01589">
        <ele>722.75</ele>
        <time>2014-08-26T07:18:00Z</time>
      </trkpt>
      <trkpt lat="44.33284" lon="6.0157">
        <ele>722.55</ele>
        <time>2014-08-26T07:18:13Z</time>
      </trkpt>
      <trkpt lat="44.33258" lon="6.01571">
        <ele>722.28</ele>
        <time>2014-08-26T07:18:37Z</time>
      </trkpt>
      <trkpt lat="44.33245" lon="6.01571">
        <ele>725.34</ele>
        <time>2014-08-26T07:20:21Z</time>
      </trkpt>
      <trkpt lat="44.33245" lon="6.01572">
        <ele>727.58</ele>
        <time>2014-08-26T07:21:09Z</time>
      </trkpt>
      <trkpt lat="44.33244" lon="6.01572">
        <ele>727.98</ele>
        <time>2014-08-26T07:21:29Z</time>
      </trkpt>
      <trkpt lat="44.33245" lon="6.01574">
        <ele>728.82</ele>
        <time>2014-08-26T07:21:45Z</time>
      </trkpt>
      <trkpt lat="44.33247" lon="6.01577">
        <ele>729.76</ele>
        <time>2014-08-26T07:22:01Z</time>
      </trkpt>
      <trkpt lat="44.33249" lon="6.01578">
        <ele>730.77</ele>
        <time>2014-08-26T07:22:20Z</time>
      </trkpt>
      <trkpt lat="44.33249" lon="6.01578">
        <ele>730.8</ele>
        <time>2014-08-26T07:22:21Z</time>
      </trkpt>
      <trkpt lat="44.33256" lon="6.01577">
        <ele>731.02</ele>
        <time>2014-08-26T07:22:26Z</time>
      </trkpt>
      <trkpt lat="44.33271" lon="6.01575">
        <ele>731.17</ele>
        <time>2014-08-26T07:22:35Z</time>
      </trkpt>
      <trkpt lat="44.33267" lon="6.01556">
        <ele>731.28</ele>
        <time>2014-08-26T07:22:47Z</time>
      </trkpt>
      <trkpt lat="44.33265" lon="6.01554">
        <ele>731.27</ele>
        <time>2014-08-26T07:22:48Z</time>
      </trkpt>
      <trkpt lat="44.33264" lon="6.01551">
        <ele>731.26</ele>
        <time>2014-08-26T07:22:49Z</time>
      </trkpt>
      <trkpt lat="44.33264" lon="6.01549">
        <ele>731.25</ele>
        <time>2014-08-26T07:22:50Z</time>
      </trkpt>
      <trkpt lat="44.3325" lon="6.01525">
        <ele>730.65</ele>
        <time>2014-08-26T07:22:57Z</time>
      </trkpt>
      <trkpt lat="44.33239" lon="6.0151">
        <ele>730.31</ele>
        <time>2014-08-26T07:23:00Z</time>
      </trkpt>
      <trkpt lat="44.33231" lon="6.015">
        <ele>729.96</ele>
        <time>2014-08-26T07:23:02Z</time>
      </trkpt>
      <trkpt lat="44.33165" lon="6.0141">
        <ele>726.82</ele>
        <time>2014-08-26T07:23:17Z</time>
      </trkpt>
      <trkpt lat="44.33092" lon="6.01322">
        <ele>723.64</ele>
        <time>2014-08-26T07:23:31Z</time>
      </trkpt>
      <trkpt lat="44.33062" lon="6.01284">
        <ele>722.57</ele>
        <time>2014-08-26T07:23:37Z</time>
      </trkpt>
      <trkpt lat="44.33057" lon="6.01278">
        <ele>722.36</ele>
        <time>2014-08-26T07:23:38Z</time>
      </trkpt>
      <trkpt lat="44.33047" lon="6.01263">
        <ele>721.89</ele>
        <time>2014-08-26T07:23:40Z</time>
      </trkpt>
      <trkpt lat="44.33042" lon="6.01255">
        <ele>721.67</ele>
        <time>2014-08-26T07:23:41Z</time>
      </trkpt>
      <trkpt lat="44.33039" lon="6.01246">
        <ele>721.43</ele>
        <time>2014-08-26T07:23:42Z</time>
      </trkpt>
      <trkpt lat="44.33" lon="6.01145">
        <ele>718.21</ele>
        <time>2014-08-26T07:23:54Z</time>
      </trkpt>
      <trkpt lat="44.32975" lon="6.01088">
        <ele>716.59</ele>
        <time>2014-08-26T07:24:01Z</time>
      </trkpt>
      <trkpt lat="44.3297" lon="6.01081">
        <ele>716.37</ele>
        <time>2014-08-26T07:24:02Z</time>
      </trkpt>
      <trkpt lat="44.32929" lon="6.01033">
        <ele>714.51</ele>
        <time>2014-08-26T07:24:10Z</time>
      </trkpt>
      <trkpt lat="44.32924" lon="6.01026">
        <ele>714.19</ele>
        <time>2014-08-26T07:24:11Z</time>
      </trkpt>
      <trkpt lat="44.32921" lon="6.01018">
        <ele>713.9</ele>
        <time>2014-08-26T07:24:12Z</time>
      </trkpt>
      <trkpt lat="44.32918" lon="6.01009">
        <ele>713.63</ele>
        <time>2014-08-26T07:24:13Z</time>
      </trkpt>
      <trkpt lat="44.32918" lon="6.00999">
        <ele>713.37</ele>
        <time>2014-08-26T07:24:14Z</time>
      </trkpt>
      <trkpt lat="44.32919" lon="6.0099">
        <ele>713.07</ele>
        <time>2014-08-26T07:24:15Z</time>
      </trkpt>
      <trkpt lat="44.32924" lon="6.00982">
        <ele>712.73</ele>
        <time>2014-08-26T07:24:16Z</time>
      </trkpt>
      <trkpt lat="44.32931" lon="6.00976">
        <ele>712.37</ele>
        <time>2014-08-26T07:24:17Z</time>
      </trkpt>
      <trkpt lat="44.32939" lon="6.00973">
        <ele>711.96</ele>
        <time>2014-08-26T07:24:18Z</time>
      </trkpt>
      <trkpt lat="44.32947" lon="6.0097">
        <ele>711.19</ele>
        <time>2014-08-26T07:24:19Z</time>
      </trkpt>
      <trkpt lat="44.32955" lon="6.00969">
        <ele>710.8</ele>
        <time>2014-08-26T07:24:20Z</time>
      </trkpt>
      <trkpt lat="44.32962" lon="6.00968">
        <ele>710.35</ele>
        <time>2014-08-26T07:24:21Z</time>
      </trkpt>
      <trkpt lat="44.32974" lon="6.00966">
        <ele>709.41</ele>
        <time>2014-08-26T07:24:23Z</time>
      </trkpt>
      <trkpt lat="44.32979" lon="6.00962">
        <ele>709.02</ele>
        <time>2014-08-26T07:24:24Z</time>
      </trkpt>
      <trkpt lat="44.32982" lon="6.00955">
        <ele>708.69</ele>
        <time>2014-08-26T07:24:25Z</time>
      </trkpt>
      <trkpt lat="44.32983" lon="6.00948">
        <ele>708.43</ele>
        <time>2014-08-26T07:24:26Z</time>
      </trkpt>
      <trkpt lat="44.32983" lon="6.00942">
        <ele>708.21</ele>
        <time>2014-08-26T07:24:27Z</time>
      </trkpt>
      <trkpt lat="44.32982" lon="6.00935">
        <ele>708.05</ele>
        <time>2014-08-26T07:24:28Z</time>
      </trkpt>
      <trkpt lat="44.3298" lon="6.00929">
        <ele>707.91</ele>
        <time>2014-08-26T07:24:29Z</time>
      </trkpt>
      <trkpt lat="44.32977" lon="6.00924">
        <ele>707.81</ele>
        <time>2014-08-26T07:24:30Z</time>
      </trkpt>
      <trkpt lat="44.32973" lon="6.00921">
        <ele>707.74</ele>
        <time>2014-08-26T07:24:31Z</time>
      </trkpt>
      <trkpt lat="44.32969" lon="6.00919">
        <ele>707.68</ele>
        <time>2014-08-26T07:24:32Z</time>
      </trkpt>
      <trkpt lat="44.32965" lon="6.00917">
        <ele>707.65</ele>
        <time>2014-08-26T07:24:33Z</time>
      </trkpt>
      <trkpt lat="44.3296" lon="6.00916">
        <ele>707.63</ele>
        <time>2014-08-26T07:24:34Z</time>
      </trkpt>
      <trkpt lat="44.32956" lon="6.00915">
        <ele>707.62</ele>
        <time>2014-08-26T07:24:35Z</time>
      </trkpt>
      <trkpt lat="44.32948" lon="6.00914">
        <ele>707.6</ele>
        <time>2014-08-26T07:24:37Z</time>
      </trkpt>
      <trkpt lat="44.32932" lon="6.00911">
        <ele>707.49</ele>
        <time>2014-08-26T07:24:41Z</time>
      </trkpt>
      <trkpt lat="44.32928" lon="6.00909">
        <ele>707.44</ele>
        <time>2014-08-26T07:24:42Z</time>
      </trkpt>
      <trkpt lat="44.32924" lon="6.00907">
        <ele>707.34</ele>
        <time>2014-08-26T07:24:43Z</time>
      </trkpt>
      <trkpt lat="44.3292" lon="6.00904">
        <ele>707.29</ele>
        <time>2014-08-26T07:24:44Z</time>
      </trkpt>
      <trkpt lat="44.32916" lon="6.009">
        <ele>707.25</ele>
        <time>2014-08-26T07:24:45Z</time>
      </trkpt>
      <trkpt lat="44.32912" lon="6.00896">
        <ele>707.21</ele>
        <time>2014-08-26T07:24:46Z</time>
      </trkpt>
      <trkpt lat="44.32909" lon="6.00892">
        <ele>707.16</ele>
        <time>2014-08-26T07:24:47Z</time>
      </trkpt>
      <trkpt lat="44.3287" lon="6.00858">
        <ele>707.36</ele>
        <time>2014-08-26T07:25:00Z</time>
      </trkpt>
      <trkpt lat="44.32824" lon="6.00819">
        <ele>707.67</ele>
        <time>2014-08-26T07:25:14Z</time>
      </trkpt>
      <trkpt lat="44.32821" lon="6.00815">
        <ele>707.71</ele>
        <time>2014-08-26T07:25:15Z</time>
      </trkpt>
      <trkpt lat="44.3279" lon="6.00764">
        <ele>707.24</ele>
        <time>2014-08-26T07:25:26Z</time>
      </trkpt>
      <trkpt lat="44.32786" lon="6.0076">
        <ele>707.19</ele>
        <time>2014-08-26T07:25:27Z</time>
      </trkpt>
      <trkpt lat="44.32782" lon="6.00757">
        <ele>707.13</ele>
        <time>2014-08-26T07:25:28Z</time>
      </trkpt>
      <trkpt lat="44.32769" lon="6.00748">
        <ele>706.98</ele>
        <time>2014-08-26T07:25:31Z</time>
      </trkpt>
      <trkpt lat="44.32766" lon="6.00744">
        <ele>706.93</ele>
        <time>2014-08-26T07:25:32Z</time>
      </trkpt>
      <trkpt lat="44.32763" lon="6.00739">
        <ele>706.84</ele>
        <time>2014-08-26T07:25:33Z</time>
      </trkpt>
      <trkpt lat="44.3276" lon="6.00734">
        <ele>706.79</ele>
        <time>2014-08-26T07:25:34Z</time>
      </trkpt>
      <trkpt lat="44.32758" lon="6.00729">
        <ele>706.75</ele>
        <time>2014-08-26T07:25:35Z</time>
      </trkpt>
      <trkpt lat="44.32738" lon="6.00691">
        <ele>706.27</ele>
        <time>2014-08-26T07:25:43Z</time>
      </trkpt>
      <trkpt lat="44.32714" lon="6.00666">
        <ele>706.08</ele>
        <time>2014-08-26T07:25:52Z</time>
      </trkpt>
      <trkpt lat="44.32677" lon="6.00633">
        <ele>705.91</ele>
        <time>2014-08-26T07:26:01Z</time>
      </trkpt>
      <trkpt lat="44.32673" lon="6.00632">
        <ele>705.84</ele>
        <time>2014-08-26T07:26:02Z</time>
      </trkpt>
      <trkpt lat="44.32656" lon="6.0063">
        <ele>705.18</ele>
        <time>2014-08-26T07:26:06Z</time>
      </trkpt>
      <trkpt lat="44.32641" lon="6.00625">
        <ele>704.79</ele>
        <time>2014-08-26T07:26:10Z</time>
      </trkpt>
      <trkpt lat="44.32633" lon="6.0062">
        <ele>704.69</ele>
        <time>2014-08-26T07:26:12Z</time>
      </trkpt>
      <trkpt lat="44.3263" lon="6.00617">
        <ele>704.65</ele>
        <time>2014-08-26T07:26:13Z</time>
      </trkpt>
      <trkpt lat="44.32588" lon="6.00544">
        <ele>702.76</ele>
        <time>2014-08-26T07:26:26Z</time>
      </trkpt>
      <trkpt lat="44.32575" lon="6.005">
        <ele>701.42</ele>
        <time>2014-08-26T07:26:32Z</time>
      </trkpt>
      <trkpt lat="44.32571" lon="6.00493">
        <ele>701.19</ele>
        <time>2014-08-26T07:26:33Z</time>
      </trkpt>
      <trkpt lat="44.32566" lon="6.00488">
        <ele>700.96</ele>
        <time>2014-08-26T07:26:34Z</time>
      </trkpt>
      <trkpt lat="44.32561" lon="6.00485">
        <ele>700.71</ele>
        <time>2014-08-26T07:26:35Z</time>
      </trkpt>
      <trkpt lat="44.32556" lon="6.00482">
        <ele>700.51</ele>
        <time>2014-08-26T07:26:36Z</time>
      </trkpt>
      <trkpt lat="44.32551" lon="6.0048">
        <ele>700.32</ele>
        <time>2014-08-26T07:26:37Z</time>
      </trkpt>
      <trkpt lat="44.32547" lon="6.00477">
        <ele>700.15</ele>
        <time>2014-08-26T07:26:38Z</time>
      </trkpt>
      <trkpt lat="44.32543" lon="6.00473">
        <ele>700.01</ele>
        <time>2014-08-26T07:26:39Z</time>
      </trkpt>
      <trkpt lat="44.32539" lon="6.00469">
        <ele>699.89</ele>
        <time>2014-08-26T07:26:40Z</time>
      </trkpt>
      <trkpt lat="44.32536" lon="6.00464">
        <ele>699.74</ele>
        <time>2014-08-26T07:26:41Z</time>
      </trkpt>
      <trkpt lat="44.32532" lon="6.00459">
        <ele>699.56</ele>
        <time>2014-08-26T07:26:42Z</time>
      </trkpt>
      <trkpt lat="44.32529" lon="6.00454">
        <ele>699.35</ele>
        <time>2014-08-26T07:26:43Z</time>
      </trkpt>
      <trkpt lat="44.32524" lon="6.00442">
        <ele>698.87</ele>
        <time>2014-08-26T07:26:45Z</time>
      </trkpt>
      <trkpt lat="44.32504" lon="6.00407">
        <ele>697.38</ele>
        <time>2014-08-26T07:26:51Z</time>
      </trkpt>
      <trkpt lat="44.32497" lon="6.00387">
        <ele>696.93</ele>
        <time>2014-08-26T07:26:54Z</time>
      </trkpt>
      <trkpt lat="44.32495" lon="6.0038">
        <ele>696.79</ele>
        <time>2014-08-26T07:26:55Z</time>
      </trkpt>
      <trkpt lat="44.32493" lon="6.00372">
        <ele>696.64</ele>
        <time>2014-08-26T07:26:56Z</time>
      </trkpt>
      <trkpt lat="44.3249" lon="6.00345">
        <ele>696.02</ele>
        <time>2014-08-26T07:27:00Z</time>
      </trkpt>
      <trkpt lat="44.32489" lon="6.0034">
        <ele>695.9</ele>
        <time>2014-08-26T07:27:01Z</time>
      </trkpt>
      <trkpt lat="44.32489" lon="6.00336">
        <ele>695.8</ele>
        <time>2014-08-26T07:27:02Z</time>
      </trkpt>
      <trkpt lat="44.32489" lon="6.00334">
        <ele>695.67</ele>
        <time>2014-08-26T07:27:11Z</time>
      </trkpt>
      <trkpt lat="44.32485" lon="6.00315">
        <ele>695.93</ele>
        <time>2014-08-26T07:27:29Z</time>
      </trkpt>
      <trkpt lat="44.32489" lon="6.00292">
        <ele>696.43</ele>
        <time>2014-08-26T07:27:43Z</time>
      </trkpt>
      <trkpt lat="44.3249" lon="6.00298">
        <ele>697.46</ele>
        <time>2014-08-26T07:28:05Z</time>
      </trkpt>
      <trkpt lat="44.3249" lon="6.003">
        <ele>697.45</ele>
        <time>2014-08-26T07:28:07Z</time>
      </trkpt>
      <trkpt lat="44.3249" lon="6.00302">
        <ele>697.45</ele>
        <time>2014-08-26T07:28:08Z</time>
      </trkpt>
      <trkpt lat="44.32496" lon="6.00342">
        <ele>698.13</ele>
        <time>2014-08-26T07:28:19Z</time>
      </trkpt>
      <trkpt lat="44.32496" lon="6.00344">
        <ele>698.2</ele>
        <time>2014-08-26T07:28:20Z</time>
      </trkpt>
      <trkpt lat="44.32494" lon="6.00345">
        <ele>698.25</ele>
        <time>2014-08-26T07:28:21Z</time>
      </trkpt>
      <trkpt lat="44.32489" lon="6.00338">
        <ele>698.27</ele>
        <time>2014-08-26T07:28:25Z</time>
      </trkpt>
      <trkpt lat="44.32488" lon="6.00334">
        <ele>698.2</ele>
        <time>2014-08-26T07:28:26Z</time>
      </trkpt>
      <trkpt lat="44.32487" lon="6.0033">
        <ele>698.04</ele>
        <time>2014-08-26T07:28:27Z</time>
      </trkpt>
      <trkpt lat="44.32486" lon="6.00326">
        <ele>697.93</ele>
        <time>2014-08-26T07:28:28Z</time>
      </trkpt>
      <trkpt lat="44.32486" lon="6.00321">
        <ele>697.79</ele>
        <time>2014-08-26T07:28:29Z</time>
      </trkpt>
      <trkpt lat="44.32485" lon="6.00315">
        <ele>697.6</ele>
        <time>2014-08-26T07:28:30Z</time>
      </trkpt>
      <trkpt lat="44.32482" lon="6.0031">
        <ele>697.35</ele>
        <time>2014-08-26T07:28:31Z</time>
      </trkpt>
      <trkpt lat="44.3248" lon="6.00303">
        <ele>697.02</ele>
        <time>2014-08-26T07:28:32Z</time>
      </trkpt>
      <trkpt lat="44.32477" lon="6.00298">
        <ele>696.68</ele>
        <time>2014-08-26T07:28:33Z</time>
      </trkpt>
      <trkpt lat="44.32475" lon="6.00293">
        <ele>696.37</ele>
        <time>2014-08-26T07:28:34Z</time>
      </trkpt>
      <trkpt lat="44.32472" lon="6.00289">
        <ele>696.13</ele>
        <time>2014-08-26T07:28:35Z</time>
      </trkpt>
      <trkpt lat="44.32469" lon="6.00286">
        <ele>695.93</ele>
        <time>2014-08-26T07:28:36Z</time>
      </trkpt>
      <trkpt lat="44.32467" lon="6.0028">
        <ele>695.73</ele>
        <time>2014-08-26T07:28:38Z</time>
      </trkpt>
      <trkpt lat="44.32466" lon="6.00276">
        <ele>695.67</ele>
        <time>2014-08-26T07:28:39Z</time>
      </trkpt>
      <trkpt lat="44.32465" lon="6.00272">
        <ele>695.64</ele>
        <time>2014-08-26T07:28:40Z</time>
      </trkpt>
      <trkpt lat="44.32464" lon="6.00267">
        <ele>695.63</ele>
        <time>2014-08-26T07:28:41Z</time>
      </trkpt>
      <trkpt lat="44.32464" lon="6.00261">
        <ele>695.59</ele>
        <time>2014-08-26T07:28:42Z</time>
      </trkpt>
      <trkpt lat="44.32464" lon="6.00255">
        <ele>695.54</ele>
        <time>2014-08-26T07:28:43Z</time>
      </trkpt>
      <trkpt lat="44.32464" lon="6.00235">
        <ele>695.25</ele>
        <time>2014-08-26T07:28:46Z</time>
      </trkpt>
      <trkpt lat="44.32463" lon="6.00222">
        <ele>695.07</ele>
        <time>2014-08-26T07:28:48Z</time>
      </trkpt>
      <trkpt lat="44.32452" lon="6.00177">
        <ele>694.78</ele>
        <time>2014-08-26T07:28:59Z</time>
      </trkpt>
      <trkpt lat="44.32448" lon="6.00137">
        <ele>695.78</ele>
        <time>2014-08-26T07:29:11Z</time>
      </trkpt>
      <trkpt lat="44.32443" lon="6.00096">
        <ele>696.92</ele>
        <time>2014-08-26T07:29:23Z</time>
      </trkpt>
      <trkpt lat="44.32437" lon="6.00036">
        <ele>696.59</ele>
        <time>2014-08-26T07:29:36Z</time>
      </trkpt>
      <trkpt lat="44.3244" lon="5.99983">
        <ele>698.44</ele>
        <time>2014-08-26T07:29:49Z</time>
      </trkpt>
      <trkpt lat="44.32444" lon="5.99928">
        <ele>700.1</ele>
        <time>2014-08-26T07:30:02Z</time>
      </trkpt>
      <trkpt lat="44.32434" lon="5.99868">
        <ele>700.39</ele>
        <time>2014-08-26T07:30:14Z</time>
      </trkpt>
      <trkpt lat="44.3243" lon="5.99858">
        <ele>700.36</ele>
        <time>2014-08-26T07:30:16Z</time>
      </trkpt>
      <trkpt lat="44.32413" lon="5.99833">
        <ele>700.2</ele>
        <time>2014-08-26T07:30:21Z</time>
      </trkpt>
      <trkpt lat="44.32402" lon="5.99819">
        <ele>699.99</ele>
        <time>2014-08-26T07:30:24Z</time>
      </trkpt>
      <trkpt lat="44.32387" lon="5.998">
        <ele>699.61</ele>
        <time>2014-08-26T07:30:28Z</time>
      </trkpt>
      <trkpt lat="44.32377" lon="5.99784">
        <ele>699.21</ele>
        <time>2014-08-26T07:30:31Z</time>
      </trkpt>
      <trkpt lat="44.32338" lon="5.99716">
        <ele>696.11</ele>
        <time>2014-08-26T07:30:40Z</time>
      </trkpt>
      <trkpt lat="44.32303" lon="5.99666">
        <ele>695.03</ele>
        <time>2014-08-26T07:30:50Z</time>
      </trkpt>
      <trkpt lat="44.3229" lon="5.99619">
        <ele>697.43</ele>
        <time>2014-08-26T07:31:02Z</time>
      </trkpt>
      <trkpt lat="44.32266" lon="5.99581">
        <ele>698.35</ele>
        <time>2014-08-26T07:31:12Z</time>
      </trkpt>
      <trkpt lat="44.32263" lon="5.99533">
        <ele>699.58</ele>
        <time>2014-08-26T07:31:23Z</time>
      </trkpt>
      <trkpt lat="44.32266" lon="5.99477">
        <ele>699.42</ele>
        <time>2014-08-26T07:31:33Z</time>
      </trkpt>
      <trkpt lat="44.32268" lon="5.99403">
        <ele>695.91</ele>
        <time>2014-08-26T07:31:41Z</time>
      </trkpt>
      <trkpt lat="44.32269" lon="5.99393">
        <ele>695.35</ele>
        <time>2014-08-26T07:31:42Z</time>
      </trkpt>
      <trkpt lat="44.32269" lon="5.99383">
        <ele>694.81</ele>
        <time>2014-08-26T07:31:43Z</time>
      </trkpt>
      <trkpt lat="44.32271" lon="5.99365">
        <ele>693.98</ele>
        <time>2014-08-26T07:31:45Z</time>
      </trkpt>
      <trkpt lat="44.32271" lon="5.99357">
        <ele>693.68</ele>
        <time>2014-08-26T07:31:46Z</time>
      </trkpt>
      <trkpt lat="44.32273" lon="5.99335">
        <ele>693</ele>
        <time>2014-08-26T07:31:49Z</time>
      </trkpt>
      <trkpt lat="44.32271" lon="5.99329">
        <ele>692.91</ele>
        <time>2014-08-26T07:31:50Z</time>
      </trkpt>
      <trkpt lat="44.32269" lon="5.99325">
        <ele>692.85</ele>
        <time>2014-08-26T07:31:51Z</time>
      </trkpt>
      <trkpt lat="44.32266" lon="5.99322">
        <ele>692.82</ele>
        <time>2014-08-26T07:31:52Z</time>
      </trkpt>
      <trkpt lat="44.32263" lon="5.99319">
        <ele>692.79</ele>
        <time>2014-08-26T07:31:53Z</time>
      </trkpt>
      <trkpt lat="44.32259" lon="5.99318">
        <ele>692.79</ele>
        <time>2014-08-26T07:31:54Z</time>
      </trkpt>
      <trkpt lat="44.32256" lon="5.99318">
        <ele>692.83</ele>
        <time>2014-08-26T07:31:55Z</time>
      </trkpt>
      <trkpt lat="44.32252" lon="5.99318">
        <ele>692.86</ele>
        <time>2014-08-26T07:31:56Z</time>
      </trkpt>
      <trkpt lat="44.32238" lon="5.99315">
        <ele>692.97</ele>
        <time>2014-08-26T07:31:59Z</time>
      </trkpt>
      <trkpt lat="44.32234" lon="5.99313">
        <ele>692.95</ele>
        <time>2014-08-26T07:32:00Z</time>
      </trkpt>
      <trkpt lat="44.3223" lon="5.99308">
        <ele>692.9</ele>
        <time>2014-08-26T07:32:01Z</time>
      </trkpt>
      <trkpt lat="44.32229" lon="5.99303">
        <ele>692.84</ele>
        <time>2014-08-26T07:32:02Z</time>
      </trkpt>
      <trkpt lat="44.32229" lon="5.99296">
        <ele>692.74</ele>
        <time>2014-08-26T07:32:03Z</time>
      </trkpt>
      <trkpt lat="44.32229" lon="5.99291">
        <ele>692.67</ele>
        <time>2014-08-26T07:32:04Z</time>
      </trkpt>
      <trkpt lat="44.32231" lon="5.99286">
        <ele>692.6</ele>
        <time>2014-08-26T07:32:05Z</time>
      </trkpt>
      <trkpt lat="44.32232" lon="5.99283">
        <ele>692.56</ele>
        <time>2014-08-26T07:32:06Z</time>
      </trkpt>
      <trkpt lat="44.32234" lon="5.99281">
        <ele>692.54</ele>
        <time>2014-08-26T07:32:07Z</time>
      </trkpt>
      <trkpt lat="44.32236" lon="5.99279">
        <ele>692.57</ele>
        <time>2014-08-26T07:32:08Z</time>
      </trkpt>
      <trkpt lat="44.32237" lon="5.99276">
        <ele>692.66</ele>
        <time>2014-08-26T07:32:09Z</time>
      </trkpt>
      <trkpt lat="44.3225" lon="5.99241">
        <ele>695.65</ele>
        <time>2014-08-26T07:32:21Z</time>
      </trkpt>
      <trkpt lat="44.32259" lon="5.99193">
        <ele>696.95</ele>
        <time>2014-08-26T07:32:33Z</time>
      </trkpt>
      <trkpt lat="44.32242" lon="5.99151">
        <ele>696.52</ele>
        <time>2014-08-26T07:32:43Z</time>
      </trkpt>
      <trkpt lat="44.32201" lon="5.99106">
        <ele>696.55</ele>
        <time>2014-08-26T07:32:57Z</time>
      </trkpt>
      <trkpt lat="44.32181" lon="5.99086">
        <ele>695.83</ele>
        <time>2014-08-26T07:33:02Z</time>
      </trkpt>
      <trkpt lat="44.32173" lon="5.9908">
        <ele>695.48</ele>
        <time>2014-08-26T07:33:04Z</time>
      </trkpt>
      <trkpt lat="44.32169" lon="5.99078">
        <ele>695.31</ele>
        <time>2014-08-26T07:33:05Z</time>
      </trkpt>
      <trkpt lat="44.32154" lon="5.99074">
        <ele>694.98</ele>
        <time>2014-08-26T07:33:08Z</time>
      </trkpt>
      <trkpt lat="44.3215" lon="5.99073">
        <ele>694.92</ele>
        <time>2014-08-26T07:33:09Z</time>
      </trkpt>
      <trkpt lat="44.32121" lon="5.99068">
        <ele>694.81</ele>
        <time>2014-08-26T07:33:16Z</time>
      </trkpt>
      <trkpt lat="44.32117" lon="5.99067">
        <ele>694.83</ele>
        <time>2014-08-26T07:33:17Z</time>
      </trkpt>
      <trkpt lat="44.32093" lon="5.99064">
        <ele>695.01</ele>
        <time>2014-08-26T07:33:23Z</time>
      </trkpt>
      <trkpt lat="44.32089" lon="5.99061">
        <ele>695.02</ele>
        <time>2014-08-26T07:33:24Z</time>
      </trkpt>
      <trkpt lat="44.32087" lon="5.99057">
        <ele>695.01</ele>
        <time>2014-08-26T07:33:25Z</time>
      </trkpt>
      <trkpt lat="44.32085" lon="5.99052">
        <ele>695.03</ele>
        <time>2014-08-26T07:33:26Z</time>
      </trkpt>
      <trkpt lat="44.32083" lon="5.99046">
        <ele>695.08</ele>
        <time>2014-08-26T07:33:27Z</time>
      </trkpt>
      <trkpt lat="44.32083" lon="5.9904">
        <ele>695.13</ele>
        <time>2014-08-26T07:33:28Z</time>
      </trkpt>
      <trkpt lat="44.32082" lon="5.99034">
        <ele>695.2</ele>
        <time>2014-08-26T07:33:29Z</time>
      </trkpt>
      <trkpt lat="44.32082" lon="5.99028">
        <ele>695.27</ele>
        <time>2014-08-26T07:33:30Z</time>
      </trkpt>
      <trkpt lat="44.32082" lon="5.99023">
        <ele>695.36</ele>
        <time>2014-08-26T07:33:31Z</time>
      </trkpt>
      <trkpt lat="44.32079" lon="5.98958">
        <ele>697.5</ele>
        <time>2014-08-26T07:33:45Z</time>
      </trkpt>
      <trkpt lat="44.32058" lon="5.98909">
        <ele>700.66</ele>
        <time>2014-08-26T07:34:00Z</time>
      </trkpt>
      <trkpt lat="44.32027" lon="5.98862">
        <ele>703.65</ele>
        <time>2014-08-26T07:34:17Z</time>
      </trkpt>
      <trkpt lat="44.32014" lon="5.98821">
        <ele>705.71</ele>
        <time>2014-08-26T07:34:32Z</time>
      </trkpt>
      <trkpt lat="44.32014" lon="5.98797">
        <ele>708.72</ele>
        <time>2014-08-26T07:34:42Z</time>
      </trkpt>
      <trkpt lat="44.32015" lon="5.98771">
        <ele>711.99</ele>
        <time>2014-08-26T07:34:53Z</time>
      </trkpt>
      <trkpt lat="44.32015" lon="5.98757">
        <ele>713.85</ele>
        <time>2014-08-26T07:35:00Z</time>
      </trkpt>
      <trkpt lat="44.32015" lon="5.98755">
        <ele>714.1</ele>
        <time>2014-08-26T07:35:01Z</time>
      </trkpt>
      <trkpt lat="44.32015" lon="5.98753">
        <ele>714.37</ele>
        <time>2014-08-26T07:35:02Z</time>
      </trkpt>
      <trkpt lat="44.32016" lon="5.98751">
        <ele>714.64</ele>
        <time>2014-08-26T07:35:03Z</time>
      </trkpt>
      <trkpt lat="44.32016" lon="5.98749">
        <ele>714.88</ele>
        <time>2014-08-26T07:35:04Z</time>
      </trkpt>
      <trkpt lat="44.32016" lon="5.98747">
        <ele>715.33</ele>
        <time>2014-08-26T07:35:05Z</time>
      </trkpt>
      <trkpt lat="44.32016" lon="5.98745">
        <ele>715.55</ele>
        <time>2014-08-26T07:35:06Z</time>
      </trkpt>
      <trkpt lat="44.32016" lon="5.98743">
        <ele>715.77</ele>
        <time>2014-08-26T07:35:07Z</time>
      </trkpt>
      <trkpt lat="44.32016" lon="5.98741">
        <ele>716</ele>
        <time>2014-08-26T07:35:08Z</time>
      </trkpt>
      <trkpt lat="44.32016" lon="5.98739">
        <ele>716.2</ele>
        <time>2014-08-26T07:35:09Z</time>
      </trkpt>
      <trkpt lat="44.32015" lon="5.98737">
        <ele>716.39</ele>
        <time>2014-08-26T07:35:10Z</time>
      </trkpt>
      <trkpt lat="44.32014" lon="5.98734">
        <ele>716.57</ele>
        <time>2014-08-26T07:35:11Z</time>
      </trkpt>
      <trkpt lat="44.32014" lon="5.98732">
        <ele>716.78</ele>
        <time>2014-08-26T07:35:12Z</time>
      </trkpt>
      <trkpt lat="44.32012" lon="5.98729">
        <ele>716.98</ele>
        <time>2014-08-26T07:35:13Z</time>
      </trkpt>
      <trkpt lat="44.3201" lon="5.98726">
        <ele>717.17</ele>
        <time>2014-08-26T07:35:14Z</time>
      </trkpt>
      <trkpt lat="44.32008" lon="5.98693">
        <ele>718.19</ele>
        <time>2014-08-26T07:35:25Z</time>
      </trkpt>
      <trkpt lat="44.32008" lon="5.98647">
        <ele>716.32</ele>
        <time>2014-08-26T07:35:39Z</time>
      </trkpt>
      <trkpt lat="44.32009" lon="5.98647">
        <ele>716.45</ele>
        <time>2014-08-26T07:36:01Z</time>
      </trkpt>
      <trkpt lat="44.3201" lon="5.9864">
        <ele>717.21</ele>
        <time>2014-08-26T07:36:27Z</time>
      </trkpt>
      <trkpt lat="44.32009" lon="5.98595">
        <ele>716.28</ele>
        <time>2014-08-26T07:36:42Z</time>
      </trkpt>
      <trkpt lat="44.32014" lon="5.98543">
        <ele>715.4</ele>
        <time>2014-08-26T07:36:56Z</time>
      </trkpt>
      <trkpt lat="44.32017" lon="5.98524">
        <ele>715.02</ele>
        <time>2014-08-26T07:37:00Z</time>
      </trkpt>
      <trkpt lat="44.32016" lon="5.98474">
        <ele>712.2</ele>
        <time>2014-08-26T07:37:10Z</time>
      </trkpt>
      <trkpt lat="44.32015" lon="5.98469">
        <ele>711.32</ele>
        <time>2014-08-26T07:37:11Z</time>
      </trkpt>
      <trkpt lat="44.32017" lon="5.98447">
        <ele>709.87</ele>
        <time>2014-08-26T07:37:15Z</time>
      </trkpt>
      <trkpt lat="44.32025" lon="5.98407">
        <ele>707.91</ele>
        <time>2014-08-26T07:37:22Z</time>
      </trkpt>
      <trkpt lat="44.32035" lon="5.98335">
        <ele>704.15</ele>
        <time>2014-08-26T07:37:32Z</time>
      </trkpt>
      <trkpt lat="44.32037" lon="5.98287">
        <ele>700.86</ele>
        <time>2014-08-26T07:37:39Z</time>
      </trkpt>
      <trkpt lat="44.32035" lon="5.98259">
        <ele>698.91</ele>
        <time>2014-08-26T07:37:43Z</time>
      </trkpt>
      <trkpt lat="44.32034" lon="5.98227">
        <ele>696.21</ele>
        <time>2014-08-26T07:37:47Z</time>
      </trkpt>
      <trkpt lat="44.32032" lon="5.98198">
        <ele>693.75</ele>
        <time>2014-08-26T07:37:51Z</time>
      </trkpt>
      <trkpt lat="44.32038" lon="5.98172">
        <ele>691.11</ele>
        <time>2014-08-26T07:37:56Z</time>
      </trkpt>
      <trkpt lat="44.32052" lon="5.98137">
        <ele>687.37</ele>
        <time>2014-08-26T07:38:06Z</time>
      </trkpt>
      <trkpt lat="44.32056" lon="5.98089">
        <ele>683.85</ele>
        <time>2014-08-26T07:38:16Z</time>
      </trkpt>
      <trkpt lat="44.32059" lon="5.98066">
        <ele>682.16</ele>
        <time>2014-08-26T07:38:20Z</time>
      </trkpt>
      <trkpt lat="44.32065" lon="5.98021">
        <ele>678.39</ele>
        <time>2014-08-26T07:38:28Z</time>
      </trkpt>
      <trkpt lat="44.32065" lon="5.98001">
        <ele>676.23</ele>
        <time>2014-08-26T07:38:33Z</time>
      </trkpt>
      <trkpt lat="44.32064" lon="5.97997">
        <ele>675.75</ele>
        <time>2014-08-26T07:38:34Z</time>
      </trkpt>
      <trkpt lat="44.32056" lon="5.97979">
        <ele>672.45</ele>
        <time>2014-08-26T07:38:41Z</time>
      </trkpt>
      <trkpt lat="44.32055" lon="5.97979">
        <ele>670.38</ele>
        <time>2014-08-26T07:39:08Z</time>
      </trkpt>
      <trkpt lat="44.32055" lon="5.97978">
        <ele>670.4</ele>
        <time>2014-08-26T07:39:09Z</time>
      </trkpt>
      <trkpt lat="44.32057" lon="5.97972">
        <ele>670.45</ele>
        <time>2014-08-26T07:39:11Z</time>
      </trkpt>
      <trkpt lat="44.32059" lon="5.97971">
        <ele>670.42</ele>
        <time>2014-08-26T07:39:12Z</time>
      </trkpt>
      <trkpt lat="44.3206" lon="5.97969">
        <ele>670.35</ele>
        <time>2014-08-26T07:39:13Z</time>
      </trkpt>
      <trkpt lat="44.32062" lon="5.97969">
        <ele>670.27</ele>
        <time>2014-08-26T07:39:14Z</time>
      </trkpt>
      <trkpt lat="44.32063" lon="5.97969">
        <ele>670.15</ele>
        <time>2014-08-26T07:39:15Z</time>
      </trkpt>
      <trkpt lat="44.32065" lon="5.9797">
        <ele>670.01</ele>
        <time>2014-08-26T07:39:16Z</time>
      </trkpt>
      <trkpt lat="44.32067" lon="5.97971">
        <ele>669.82</ele>
        <time>2014-08-26T07:39:17Z</time>
      </trkpt>
      <trkpt lat="44.3207" lon="5.97971">
        <ele>669.51</ele>
        <time>2014-08-26T07:39:18Z</time>
      </trkpt>
      <trkpt lat="44.32072" lon="5.97971">
        <ele>669.15</ele>
        <time>2014-08-26T07:39:19Z</time>
      </trkpt>
      <trkpt lat="44.32074" lon="5.9797">
        <ele>668.82</ele>
        <time>2014-08-26T07:39:20Z</time>
      </trkpt>
      <trkpt lat="44.32093" lon="5.97951">
        <ele>665.25</ele>
        <time>2014-08-26T07:39:28Z</time>
      </trkpt>
      <trkpt lat="44.32094" lon="5.9794">
        <ele>663.39</ele>
        <time>2014-08-26T07:39:31Z</time>
      </trkpt>
      <trkpt lat="44.32092" lon="5.97938">
        <ele>662.77</ele>
        <time>2014-08-26T07:39:32Z</time>
      </trkpt>
      <trkpt lat="44.32083" lon="5.97932">
        <ele>659.76</ele>
        <time>2014-08-26T07:39:37Z</time>
      </trkpt>
      <trkpt lat="44.32062" lon="5.97929">
        <ele>656.79</ele>
        <time>2014-08-26T07:39:47Z</time>
      </trkpt>
      <trkpt lat="44.3206" lon="5.97929">
        <ele>654.88</ele>
        <time>2014-08-26T07:39:59Z</time>
      </trkpt>
      <trkpt lat="44.32057" lon="5.97928">
        <ele>655.2</ele>
        <time>2014-08-26T07:40:20Z</time>
      </trkpt>
      <trkpt lat="44.32052" lon="5.97928">
        <ele>655.71</ele>
        <time>2014-08-26T07:40:39Z</time>
      </trkpt>
      <trkpt lat="44.32054" lon="5.97926">
        <ele>656.98</ele>
        <time>2014-08-26T07:41:09Z</time>
      </trkpt>
      <trkpt lat="44.32056" lon="5.97931">
        <ele>657.39</ele>
        <time>2014-08-26T07:41:37Z</time>
      </trkpt>
      <trkpt lat="44.32056" lon="5.97919">
        <ele>657.66</ele>
        <time>2014-08-26T07:41:55Z</time>
      </trkpt>
      <trkpt lat="44.32055" lon="5.97917">
        <ele>657.77</ele>
        <time>2014-08-26T07:41:56Z</time>
      </trkpt>
      <trkpt lat="44.32054" lon="5.97915">
        <ele>657.87</ele>
        <time>2014-08-26T07:41:57Z</time>
      </trkpt>
      <trkpt lat="44.32052" lon="5.97912">
        <ele>657.95</ele>
        <time>2014-08-26T07:41:58Z</time>
      </trkpt>
      <trkpt lat="44.3205" lon="5.9791">
        <ele>658.01</ele>
        <time>2014-08-26T07:41:59Z</time>
      </trkpt>
      <trkpt lat="44.32049" lon="5.97908">
        <ele>658.09</ele>
        <time>2014-08-26T07:42:00Z</time>
      </trkpt>
      <trkpt lat="44.32047" lon="5.97906">
        <ele>658.14</ele>
        <time>2014-08-26T07:42:01Z</time>
      </trkpt>
      <trkpt lat="44.32033" lon="5.97881">
        <ele>660.9</ele>
        <time>2014-08-26T07:42:14Z</time>
      </trkpt>
      <trkpt lat="44.32023" lon="5.97853">
        <ele>664.07</ele>
        <time>2014-08-26T07:42:27Z</time>
      </trkpt>
      <trkpt lat="44.32019" lon="5.97822">
        <ele>667.28</ele>
        <time>2014-08-26T07:42:42Z</time>
      </trkpt>
      <trkpt lat="44.3202" lon="5.97808">
        <ele>670.32</ele>
        <time>2014-08-26T07:42:54Z</time>
      </trkpt>
      <trkpt lat="44.32028" lon="5.97809">
        <ele>672.82</ele>
        <time>2014-08-26T07:43:05Z</time>
      </trkpt>
      <trkpt lat="44.3204" lon="5.97827">
        <ele>675.89</ele>
        <time>2014-08-26T07:43:23Z</time>
      </trkpt>
      <trkpt lat="44.32045" lon="5.97831">
        <ele>677.33</ele>
        <time>2014-08-26T07:43:31Z</time>
      </trkpt>
      <trkpt lat="44.32049" lon="5.97825">
        <ele>678.86</ele>
        <time>2014-08-26T07:43:39Z</time>
      </trkpt>
      <trkpt lat="44.32048" lon="5.97803">
        <ele>681.32</ele>
        <time>2014-08-26T07:43:55Z</time>
      </trkpt>
      <trkpt lat="44.32053" lon="5.97792">
        <ele>684.06</ele>
        <time>2014-08-26T07:44:08Z</time>
      </trkpt>
      <trkpt lat="44.32065" lon="5.97796">
        <ele>687.24</ele>
        <time>2014-08-26T07:44:25Z</time>
      </trkpt>
      <trkpt lat="44.32079" lon="5.97807">
        <ele>690.5</ele>
        <time>2014-08-26T07:44:41Z</time>
      </trkpt>
      <trkpt lat="44.32088" lon="5.97805">
        <ele>693.61</ele>
        <time>2014-08-26T07:44:56Z</time>
      </trkpt>
      <trkpt lat="44.32093" lon="5.97797">
        <ele>695.49</ele>
        <time>2014-08-26T07:45:06Z</time>
      </trkpt>
      <trkpt lat="44.32104" lon="5.9778">
        <ele>698.31</ele>
        <time>2014-08-26T07:45:22Z</time>
      </trkpt>
      <trkpt lat="44.32117" lon="5.97768">
        <ele>699.83</ele>
        <time>2014-08-26T07:45:38Z</time>
      </trkpt>
      <trkpt lat="44.32132" lon="5.97759">
        <ele>702.27</ele>
        <time>2014-08-26T07:45:59Z</time>
      </trkpt>
      <trkpt lat="44.32146" lon="5.97753">
        <ele>703.94</ele>
        <time>2014-08-26T07:46:14Z</time>
      </trkpt>
      <trkpt lat="44.3216" lon="5.97749">
        <ele>706.83</ele>
        <time>2014-08-26T07:46:33Z</time>
      </trkpt>
      <trkpt lat="44.32165" lon="5.97745">
        <ele>707.9</ele>
        <time>2014-08-26T07:46:39Z</time>
      </trkpt>
      <trkpt lat="44.32178" lon="5.97729">
        <ele>710.16</ele>
        <time>2014-08-26T07:46:56Z</time>
      </trkpt>
      <trkpt lat="44.32191" lon="5.97717">
        <ele>712.39</ele>
        <time>2014-08-26T07:47:11Z</time>
      </trkpt>
      <trkpt lat="44.32203" lon="5.97706">
        <ele>714.89</ele>
        <time>2014-08-26T07:47:26Z</time>
      </trkpt>
      <trkpt lat="44.32214" lon="5.97694">
        <ele>717.89</ele>
        <time>2014-08-26T07:47:44Z</time>
      </trkpt>
      <trkpt lat="44.32226" lon="5.97678">
        <ele>720.89</ele>
        <time>2014-08-26T07:48:03Z</time>
      </trkpt>
      <trkpt lat="44.32238" lon="5.97663">
        <ele>724.04</ele>
        <time>2014-08-26T07:48:21Z</time>
      </trkpt>
      <trkpt lat="44.32251" lon="5.97652">
        <ele>727.14</ele>
        <time>2014-08-26T07:48:38Z</time>
      </trkpt>
      <trkpt lat="44.32264" lon="5.97639">
        <ele>730.15</ele>
        <time>2014-08-26T07:48:56Z</time>
      </trkpt>
      <trkpt lat="44.32267" lon="5.9763">
        <ele>731.57</ele>
        <time>2014-08-26T07:49:04Z</time>
      </trkpt>
      <trkpt lat="44.3227" lon="5.97624">
        <ele>731.93</ele>
        <time>2014-08-26T07:49:08Z</time>
      </trkpt>
      <trkpt lat="44.32276" lon="5.97615">
        <ele>732.53</ele>
        <time>2014-08-26T07:49:16Z</time>
      </trkpt>
      <trkpt lat="44.32291" lon="5.97595">
        <ele>734.84</ele>
        <time>2014-08-26T07:49:32Z</time>
      </trkpt>
      <trkpt lat="44.32297" lon="5.97586">
        <ele>736.26</ele>
        <time>2014-08-26T07:49:39Z</time>
      </trkpt>
      <trkpt lat="44.32303" lon="5.97577">
        <ele>738.2</ele>
        <time>2014-08-26T07:49:46Z</time>
      </trkpt>
      <trkpt lat="44.3231" lon="5.97559">
        <ele>741.49</ele>
        <time>2014-08-26T07:49:58Z</time>
      </trkpt>
      <trkpt lat="44.32315" lon="5.97545">
        <ele>743.14</ele>
        <time>2014-08-26T07:50:06Z</time>
      </trkpt>
      <trkpt lat="44.32324" lon="5.97525">
        <ele>745.77</ele>
        <time>2014-08-26T07:50:21Z</time>
      </trkpt>
      <trkpt lat="44.32334" lon="5.97509">
        <ele>747.71</ele>
        <time>2014-08-26T07:50:33Z</time>
      </trkpt>
      <trkpt lat="44.32337" lon="5.97502">
        <ele>748.54</ele>
        <time>2014-08-26T07:50:38Z</time>
      </trkpt>
      <trkpt lat="44.32338" lon="5.9747">
        <ele>751</ele>
        <time>2014-08-26T07:50:57Z</time>
      </trkpt>
      <trkpt lat="44.32341" lon="5.9746">
        <ele>751.96</ele>
        <time>2014-08-26T07:51:03Z</time>
      </trkpt>
      <trkpt lat="44.32344" lon="5.97454">
        <ele>752.91</ele>
        <time>2014-08-26T07:51:09Z</time>
      </trkpt>
      <trkpt lat="44.32346" lon="5.97449">
        <ele>753.34</ele>
        <time>2014-08-26T07:51:12Z</time>
      </trkpt>
      <trkpt lat="44.32349" lon="5.97442">
        <ele>754.01</ele>
        <time>2014-08-26T07:51:17Z</time>
      </trkpt>
      <trkpt lat="44.3235" lon="5.9744">
        <ele>754.23</ele>
        <time>2014-08-26T07:51:19Z</time>
      </trkpt>
      <trkpt lat="44.32359" lon="5.97418">
        <ele>756.64</ele>
        <time>2014-08-26T07:51:34Z</time>
      </trkpt>
      <trkpt lat="44.32362" lon="5.97403">
        <ele>758.32</ele>
        <time>2014-08-26T07:51:43Z</time>
      </trkpt>
      <trkpt lat="44.32363" lon="5.97391">
        <ele>759.52</ele>
        <time>2014-08-26T07:51:49Z</time>
      </trkpt>
      <trkpt lat="44.32357" lon="5.9737">
        <ele>762.22</ele>
        <time>2014-08-26T07:52:01Z</time>
      </trkpt>
      <trkpt lat="44.32354" lon="5.97359">
        <ele>763.51</ele>
        <time>2014-08-26T07:52:08Z</time>
      </trkpt>
      <trkpt lat="44.32354" lon="5.9734">
        <ele>765.65</ele>
        <time>2014-08-26T07:52:20Z</time>
      </trkpt>
      <trkpt lat="44.32358" lon="5.97327">
        <ele>766.81</ele>
        <time>2014-08-26T07:52:30Z</time>
      </trkpt>
      <trkpt lat="44.32361" lon="5.97304">
        <ele>768.43</ele>
        <time>2014-08-26T07:52:43Z</time>
      </trkpt>
      <trkpt lat="44.32367" lon="5.97295">
        <ele>769.11</ele>
        <time>2014-08-26T07:52:50Z</time>
      </trkpt>
      <trkpt lat="44.32371" lon="5.97285">
        <ele>770.25</ele>
        <time>2014-08-26T07:53:01Z</time>
      </trkpt>
      <trkpt lat="44.32372" lon="5.97263">
        <ele>773.25</ele>
        <time>2014-08-26T07:53:19Z</time>
      </trkpt>
      <trkpt lat="44.32374" lon="5.97245">
        <ele>776.36</ele>
        <time>2014-08-26T07:53:35Z</time>
      </trkpt>
      <trkpt lat="44.32374" lon="5.97244">
        <ele>776.53</ele>
        <time>2014-08-26T07:53:36Z</time>
      </trkpt>
      <trkpt lat="44.32373" lon="5.97235">
        <ele>778.65</ele>
        <time>2014-08-26T07:53:53Z</time>
      </trkpt>
      <trkpt lat="44.32374" lon="5.97215">
        <ele>779.37</ele>
        <time>2014-08-26T07:54:09Z</time>
      </trkpt>
      <trkpt lat="44.32378" lon="5.97193">
        <ele>781.27</ele>
        <time>2014-08-26T07:54:24Z</time>
      </trkpt>
      <trkpt lat="44.3238" lon="5.9719">
        <ele>781.69</ele>
        <time>2014-08-26T07:54:27Z</time>
      </trkpt>
      <trkpt lat="44.32387" lon="5.97169">
        <ele>784.19</ele>
        <time>2014-08-26T07:54:45Z</time>
      </trkpt>
      <trkpt lat="44.32391" lon="5.97155">
        <ele>786.06</ele>
        <time>2014-08-26T07:54:59Z</time>
      </trkpt>
      <trkpt lat="44.32395" lon="5.9714">
        <ele>788.51</ele>
        <time>2014-08-26T07:55:14Z</time>
      </trkpt>
      <trkpt lat="44.32403" lon="5.97128">
        <ele>790.97</ele>
        <time>2014-08-26T07:55:30Z</time>
      </trkpt>
      <trkpt lat="44.32404" lon="5.97127">
        <ele>791.38</ele>
        <time>2014-08-26T07:55:32Z</time>
      </trkpt>
      <trkpt lat="44.32426" lon="5.97124">
        <ele>794.06</ele>
        <time>2014-08-26T07:55:51Z</time>
      </trkpt>
      <trkpt lat="44.3243" lon="5.97121">
        <ele>794.48</ele>
        <time>2014-08-26T07:56:07Z</time>
      </trkpt>
      <trkpt lat="44.3243" lon="5.97124">
        <ele>794.85</ele>
        <time>2014-08-26T07:56:32Z</time>
      </trkpt>
      <trkpt lat="44.32429" lon="5.97122">
        <ele>794.88</ele>
        <time>2014-08-26T07:56:56Z</time>
      </trkpt>
      <trkpt lat="44.32434" lon="5.9712">
        <ele>795.32</ele>
        <time>2014-08-26T07:57:19Z</time>
      </trkpt>
      <trkpt lat="44.32434" lon="5.97119">
        <ele>795.35</ele>
        <time>2014-08-26T07:57:45Z</time>
      </trkpt>
      <trkpt lat="44.32436" lon="5.97118">
        <ele>795.34</ele>
        <time>2014-08-26T07:58:13Z</time>
      </trkpt>
      <trkpt lat="44.32441" lon="5.9711">
        <ele>795.64</ele>
        <time>2014-08-26T07:58:19Z</time>
      </trkpt>
      <trkpt lat="44.32443" lon="5.97108">
        <ele>795.62</ele>
        <time>2014-08-26T07:58:20Z</time>
      </trkpt>
      <trkpt lat="44.32445" lon="5.97105">
        <ele>795.56</ele>
        <time>2014-08-26T07:58:21Z</time>
      </trkpt>
      <trkpt lat="44.32447" lon="5.97102">
        <ele>795.43</ele>
        <time>2014-08-26T07:58:22Z</time>
      </trkpt>
      <trkpt lat="44.32449" lon="5.97097">
        <ele>795.26</ele>
        <time>2014-08-26T07:58:23Z</time>
      </trkpt>
      <trkpt lat="44.32457" lon="5.97084">
        <ele>794.27</ele>
        <time>2014-08-26T07:58:26Z</time>
      </trkpt>
      <trkpt lat="44.32482" lon="5.97015">
        <ele>790.9</ele>
        <time>2014-08-26T07:58:40Z</time>
      </trkpt>
      <trkpt lat="44.32483" lon="5.96983">
        <ele>789.18</ele>
        <time>2014-08-26T07:58:47Z</time>
      </trkpt>
      <trkpt lat="44.32491" lon="5.96973">
        <ele>787.51</ele>
        <time>2014-08-26T07:58:51Z</time>
      </trkpt>
      <trkpt lat="44.32499" lon="5.96957">
        <ele>786.26</ele>
        <time>2014-08-26T07:58:55Z</time>
      </trkpt>
      <trkpt lat="44.32506" lon="5.9691">
        <ele>783.24</ele>
        <time>2014-08-26T07:59:05Z</time>
      </trkpt>
      <trkpt lat="44.32496" lon="5.96869">
        <ele>780.23</ele>
        <time>2014-08-26T07:59:14Z</time>
      </trkpt>
      <trkpt lat="44.32496" lon="5.9684">
        <ele>777.06</ele>
        <time>2014-08-26T07:59:22Z</time>
      </trkpt>
      <trkpt lat="44.32493" lon="5.96821">
        <ele>775.55</ele>
        <time>2014-08-26T07:59:26Z</time>
      </trkpt>
      <trkpt lat="44.32482" lon="5.96804">
        <ele>773.95</ele>
        <time>2014-08-26T07:59:31Z</time>
      </trkpt>
      <trkpt lat="44.32463" lon="5.96783">
        <ele>775.34</ele>
        <time>2014-08-26T07:59:47Z</time>
      </trkpt>
      <trkpt lat="44.32452" lon="5.96753">
        <ele>778.47</ele>
        <time>2014-08-26T08:00:04Z</time>
      </trkpt>
      <trkpt lat="44.32451" lon="5.96732">
        <ele>778.85</ele>
        <time>2014-08-26T08:00:08Z</time>
      </trkpt>
      <trkpt lat="44.32452" lon="5.96715">
        <ele>778.57</ele>
        <time>2014-08-26T08:00:10Z</time>
      </trkpt>
      <trkpt lat="44.3246" lon="5.96681">
        <ele>776.85</ele>
        <time>2014-08-26T08:00:14Z</time>
      </trkpt>
      <trkpt lat="44.32462" lon="5.96657">
        <ele>775.69</ele>
        <time>2014-08-26T08:00:17Z</time>
      </trkpt>
      <trkpt lat="44.32472" lon="5.96614">
        <ele>774.43</ele>
        <time>2014-08-26T08:00:23Z</time>
      </trkpt>
      <trkpt lat="44.32478" lon="5.9657">
        <ele>772.51</ele>
        <time>2014-08-26T08:00:31Z</time>
      </trkpt>
      <trkpt lat="44.32471" lon="5.96559">
        <ele>772.07</ele>
        <time>2014-08-26T08:00:36Z</time>
      </trkpt>
      <trkpt lat="44.32467" lon="5.96545">
        <ele>772.46</ele>
        <time>2014-08-26T08:00:43Z</time>
      </trkpt>
      <trkpt lat="44.3246" lon="5.96508">
        <ele>775.08</ele>
        <time>2014-08-26T08:01:00Z</time>
      </trkpt>
      <trkpt lat="44.32459" lon="5.96478">
        <ele>777.61</ele>
        <time>2014-08-26T08:01:15Z</time>
      </trkpt>
      <trkpt lat="44.32456" lon="5.9644">
        <ele>779.55</ele>
        <time>2014-08-26T08:01:32Z</time>
      </trkpt>
      <trkpt lat="44.32452" lon="5.96399">
        <ele>780.17</ele>
        <time>2014-08-26T08:01:46Z</time>
      </trkpt>
      <trkpt lat="44.32446" lon="5.9636">
        <ele>781.35</ele>
        <time>2014-08-26T08:02:00Z</time>
      </trkpt>
      <trkpt lat="44.32439" lon="5.96317">
        <ele>782.68</ele>
        <time>2014-08-26T08:02:15Z</time>
      </trkpt>
      <trkpt lat="44.32421" lon="5.96288">
        <ele>784.13</ele>
        <time>2014-08-26T08:02:28Z</time>
      </trkpt>
      <trkpt lat="44.32415" lon="5.96272">
        <ele>786.85</ele>
        <time>2014-08-26T08:02:41Z</time>
      </trkpt>
      <trkpt lat="44.32412" lon="5.96273">
        <ele>787</ele>
        <time>2014-08-26T08:03:08Z</time>
      </trkpt>
      <trkpt lat="44.32405" lon="5.96262">
        <ele>787.64</ele>
        <time>2014-08-26T08:03:23Z</time>
      </trkpt>
      <trkpt lat="44.32404" lon="5.96258">
        <ele>788.01</ele>
        <time>2014-08-26T08:03:25Z</time>
      </trkpt>
      <trkpt lat="44.32378" lon="5.9622">
        <ele>788.57</ele>
        <time>2014-08-26T08:03:41Z</time>
      </trkpt>
      <trkpt lat="44.32339" lon="5.96169">
        <ele>789.63</ele>
        <time>2014-08-26T08:04:00Z</time>
      </trkpt>
      <trkpt lat="44.3232" lon="5.9612">
        <ele>790.37</ele>
        <time>2014-08-26T08:04:14Z</time>
      </trkpt>
      <trkpt lat="44.32303" lon="5.9608">
        <ele>791.81</ele>
        <time>2014-08-26T08:04:25Z</time>
      </trkpt>
      <trkpt lat="44.3225" lon="5.96065">
        <ele>792.48</ele>
        <time>2014-08-26T08:04:39Z</time>
      </trkpt>
      <trkpt lat="44.32217" lon="5.9602">
        <ele>792.6</ele>
        <time>2014-08-26T08:04:51Z</time>
      </trkpt>
      <trkpt lat="44.32182" lon="5.95967">
        <ele>792.39</ele>
        <time>2014-08-26T08:05:05Z</time>
      </trkpt>
      <trkpt lat="44.3217" lon="5.95962">
        <ele>792.49</ele>
        <time>2014-08-26T08:05:08Z</time>
      </trkpt>
      <trkpt lat="44.32166" lon="5.95962">
        <ele>792.5</ele>
        <time>2014-08-26T08:05:09Z</time>
      </trkpt>
      <trkpt lat="44.32162" lon="5.95962">
        <ele>792.53</ele>
        <time>2014-08-26T08:05:10Z</time>
      </trkpt>
      <trkpt lat="44.32158" lon="5.95964">
        <ele>792.6</ele>
        <time>2014-08-26T08:05:11Z</time>
      </trkpt>
      <trkpt lat="44.32154" lon="5.95965">
        <ele>792.61</ele>
        <time>2014-08-26T08:05:12Z</time>
      </trkpt>
      <trkpt lat="44.32104" lon="5.95986">
        <ele>792.39</ele>
        <time>2014-08-26T08:05:27Z</time>
      </trkpt>
      <trkpt lat="44.32097" lon="5.95985">
        <ele>792.39</ele>
        <time>2014-08-26T08:05:37Z</time>
      </trkpt>
      <trkpt lat="44.32093" lon="5.95981">
        <ele>792.67</ele>
        <time>2014-08-26T08:05:57Z</time>
      </trkpt>
      <trkpt lat="44.32094" lon="5.9598">
        <ele>792.65</ele>
        <time>2014-08-26T08:05:58Z</time>
      </trkpt>
      <trkpt lat="44.32094" lon="5.95979">
        <ele>792.65</ele>
        <time>2014-08-26T08:05:59Z</time>
      </trkpt>
      <trkpt lat="44.32096" lon="5.95978">
        <ele>792.65</ele>
        <time>2014-08-26T08:06:01Z</time>
      </trkpt>
      <trkpt lat="44.32101" lon="5.9598">
        <ele>792.53</ele>
        <time>2014-08-26T08:06:15Z</time>
      </trkpt>
      <trkpt lat="44.32131" lon="5.95971">
        <ele>791.76</ele>
        <time>2014-08-26T08:06:26Z</time>
      </trkpt>
      <trkpt lat="44.32138" lon="5.95964">
        <ele>791.09</ele>
        <time>2014-08-26T08:06:28Z</time>
      </trkpt>
      <trkpt lat="44.3215" lon="5.95952">
        <ele>790.32</ele>
        <time>2014-08-26T08:06:31Z</time>
      </trkpt>
      <trkpt lat="44.32169" lon="5.95933">
        <ele>789.43</ele>
        <time>2014-08-26T08:06:35Z</time>
      </trkpt>
      <trkpt lat="44.32175" lon="5.9593">
        <ele>789.13</ele>
        <time>2014-08-26T08:06:36Z</time>
      </trkpt>
      <trkpt lat="44.3218" lon="5.95929">
        <ele>788.78</ele>
        <time>2014-08-26T08:06:37Z</time>
      </trkpt>
      <trkpt lat="44.32186" lon="5.95931">
        <ele>788.42</ele>
        <time>2014-08-26T08:06:38Z</time>
      </trkpt>
      <trkpt lat="44.32196" lon="5.95943">
        <ele>787.71</ele>
        <time>2014-08-26T08:06:40Z</time>
      </trkpt>
      <trkpt lat="44.32201" lon="5.95951">
        <ele>787.34</ele>
        <time>2014-08-26T08:06:41Z</time>
      </trkpt>
      <trkpt lat="44.32206" lon="5.95958">
        <ele>786.94</ele>
        <time>2014-08-26T08:06:42Z</time>
      </trkpt>
      <trkpt lat="44.32212" lon="5.95965">
        <ele>786.52</ele>
        <time>2014-08-26T08:06:43Z</time>
      </trkpt>
      <trkpt lat="44.32219" lon="5.95972">
        <ele>786.06</ele>
        <time>2014-08-26T08:06:44Z</time>
      </trkpt>
      <trkpt lat="44.32226" lon="5.95978">
        <ele>785.56</ele>
        <time>2014-08-26T08:06:45Z</time>
      </trkpt>
      <trkpt lat="44.32233" lon="5.95984">
        <ele>785.02</ele>
        <time>2014-08-26T08:06:46Z</time>
      </trkpt>
      <trkpt lat="44.3224" lon="5.95988">
        <ele>784.47</ele>
        <time>2014-08-26T08:06:47Z</time>
      </trkpt>
      <trkpt lat="44.32247" lon="5.95991">
        <ele>783.91</ele>
        <time>2014-08-26T08:06:48Z</time>
      </trkpt>
      <trkpt lat="44.32253" lon="5.95994">
        <ele>783.3</ele>
        <time>2014-08-26T08:06:49Z</time>
      </trkpt>
      <trkpt lat="44.32274" lon="5.96004">
        <ele>780.87</ele>
        <time>2014-08-26T08:06:52Z</time>
      </trkpt>
      <trkpt lat="44.32281" lon="5.96006">
        <ele>780.27</ele>
        <time>2014-08-26T08:06:53Z</time>
      </trkpt>
      <trkpt lat="44.32289" lon="5.96008">
        <ele>779.67</ele>
        <time>2014-08-26T08:06:54Z</time>
      </trkpt>
      <trkpt lat="44.32296" lon="5.96008">
        <ele>779.08</ele>
        <time>2014-08-26T08:06:55Z</time>
      </trkpt>
      <trkpt lat="44.32304" lon="5.96009">
        <ele>778.51</ele>
        <time>2014-08-26T08:06:56Z</time>
      </trkpt>
      <trkpt lat="44.32338" lon="5.96014">
        <ele>776.42</ele>
        <time>2014-08-26T08:07:01Z</time>
      </trkpt>
      <trkpt lat="44.32345" lon="5.96014">
        <ele>776.13</ele>
        <time>2014-08-26T08:07:02Z</time>
      </trkpt>
      <trkpt lat="44.32376" lon="5.96018">
        <ele>774.02</ele>
        <time>2014-08-26T08:07:10Z</time>
      </trkpt>
      <trkpt lat="44.32375" lon="5.96023">
        <ele>772.13</ele>
        <time>2014-08-26T08:07:31Z</time>
      </trkpt>
      <trkpt lat="44.32376" lon="5.96021">
        <ele>772.26</ele>
        <time>2014-08-26T08:07:36Z</time>
      </trkpt>
      <trkpt lat="44.32378" lon="5.96019">
        <ele>772.27</ele>
        <time>2014-08-26T08:07:37Z</time>
      </trkpt>
      <trkpt lat="44.32381" lon="5.96017">
        <ele>772.25</ele>
        <time>2014-08-26T08:07:38Z</time>
      </trkpt>
      <trkpt lat="44.32385" lon="5.96014">
        <ele>772.21</ele>
        <time>2014-08-26T08:07:39Z</time>
      </trkpt>
      <trkpt lat="44.32388" lon="5.9601">
        <ele>772.16</ele>
        <time>2014-08-26T08:07:40Z</time>
      </trkpt>
      <trkpt lat="44.32392" lon="5.96004">
        <ele>772.05</ele>
        <time>2014-08-26T08:07:41Z</time>
      </trkpt>
      <trkpt lat="44.32395" lon="5.95998">
        <ele>771.64</ele>
        <time>2014-08-26T08:07:42Z</time>
      </trkpt>
      <trkpt lat="44.32398" lon="5.9599">
        <ele>771.32</ele>
        <time>2014-08-26T08:07:43Z</time>
      </trkpt>
      <trkpt lat="44.32399" lon="5.95981">
        <ele>770.94</ele>
        <time>2014-08-26T08:07:44Z</time>
      </trkpt>
      <trkpt lat="44.324" lon="5.95971">
        <ele>770.53</ele>
        <time>2014-08-26T08:07:45Z</time>
      </trkpt>
      <trkpt lat="44.32401" lon="5.95961">
        <ele>770.1</ele>
        <time>2014-08-26T08:07:46Z</time>
      </trkpt>
      <trkpt lat="44.32403" lon="5.95915">
        <ele>767.77</ele>
        <time>2014-08-26T08:07:51Z</time>
      </trkpt>
      <trkpt lat="44.32407" lon="5.95908">
        <ele>767.29</ele>
        <time>2014-08-26T08:07:52Z</time>
      </trkpt>
      <trkpt lat="44.32411" lon="5.95902">
        <ele>766.81</ele>
        <time>2014-08-26T08:07:53Z</time>
      </trkpt>
      <trkpt lat="44.32417" lon="5.95897">
        <ele>766.32</ele>
        <time>2014-08-26T08:07:54Z</time>
      </trkpt>
      <trkpt lat="44.32423" lon="5.95893">
        <ele>765.82</ele>
        <time>2014-08-26T08:07:55Z</time>
      </trkpt>
      <trkpt lat="44.32428" lon="5.9589">
        <ele>765.35</ele>
        <time>2014-08-26T08:07:56Z</time>
      </trkpt>
      <trkpt lat="44.32432" lon="5.95886">
        <ele>764.92</ele>
        <time>2014-08-26T08:07:57Z</time>
      </trkpt>
      <trkpt lat="44.32436" lon="5.95881">
        <ele>764.56</ele>
        <time>2014-08-26T08:07:58Z</time>
      </trkpt>
      <trkpt lat="44.32438" lon="5.95876">
        <ele>764.28</ele>
        <time>2014-08-26T08:07:59Z</time>
      </trkpt>
      <trkpt lat="44.3244" lon="5.95871">
        <ele>764.06</ele>
        <time>2014-08-26T08:08:00Z</time>
      </trkpt>
      <trkpt lat="44.32441" lon="5.95867">
        <ele>763.94</ele>
        <time>2014-08-26T08:08:01Z</time>
      </trkpt>
      <trkpt lat="44.32442" lon="5.95862">
        <ele>763.89</ele>
        <time>2014-08-26T08:08:02Z</time>
      </trkpt>
      <trkpt lat="44.32446" lon="5.95846">
        <ele>763.99</ele>
        <time>2014-08-26T08:08:13Z</time>
      </trkpt>
      <trkpt lat="44.32444" lon="5.95843">
        <ele>763.72</ele>
        <time>2014-08-26T08:08:40Z</time>
      </trkpt>
      <trkpt lat="44.32444" lon="5.95842">
        <ele>763.69</ele>
        <time>2014-08-26T08:08:41Z</time>
      </trkpt>
      <trkpt lat="44.32439" lon="5.95808">
        <ele>763.16</ele>
        <time>2014-08-26T08:08:52Z</time>
      </trkpt>
      <trkpt lat="44.32432" lon="5.95791">
        <ele>762.55</ele>
        <time>2014-08-26T08:08:55Z</time>
      </trkpt>
      <trkpt lat="44.32428" lon="5.95786">
        <ele>762.24</ele>
        <time>2014-08-26T08:08:56Z</time>
      </trkpt>
      <trkpt lat="44.32424" lon="5.95781">
        <ele>761.9</ele>
        <time>2014-08-26T08:08:57Z</time>
      </trkpt>
      <trkpt lat="44.32419" lon="5.95776">
        <ele>761.56</ele>
        <time>2014-08-26T08:08:58Z</time>
      </trkpt>
      <trkpt lat="44.32414" lon="5.95772">
        <ele>761.13</ele>
        <time>2014-08-26T08:08:59Z</time>
      </trkpt>
      <trkpt lat="44.32405" lon="5.95766">
        <ele>760.15</ele>
        <time>2014-08-26T08:09:01Z</time>
      </trkpt>
      <trkpt lat="44.32401" lon="5.95761">
        <ele>759.7</ele>
        <time>2014-08-26T08:09:02Z</time>
      </trkpt>
      <trkpt lat="44.324" lon="5.95756">
        <ele>758.74</ele>
        <time>2014-08-26T08:09:03Z</time>
      </trkpt>
      <trkpt lat="44.324" lon="5.95749">
        <ele>758.26</ele>
        <time>2014-08-26T08:09:04Z</time>
      </trkpt>
      <trkpt lat="44.32403" lon="5.95744">
        <ele>757.75</ele>
        <time>2014-08-26T08:09:05Z</time>
      </trkpt>
      <trkpt lat="44.32407" lon="5.95741">
        <ele>757.17</ele>
        <time>2014-08-26T08:09:06Z</time>
      </trkpt>
      <trkpt lat="44.32413" lon="5.95739">
        <ele>756.56</ele>
        <time>2014-08-26T08:09:07Z</time>
      </trkpt>
      <trkpt lat="44.32418" lon="5.95738">
        <ele>755.96</ele>
        <time>2014-08-26T08:09:08Z</time>
      </trkpt>
      <trkpt lat="44.32459" lon="5.95728">
        <ele>752.66</ele>
        <time>2014-08-26T08:09:14Z</time>
      </trkpt>
      <trkpt lat="44.32503" lon="5.95717">
        <ele>749.66</ele>
        <time>2014-08-26T08:09:20Z</time>
      </trkpt>
      <trkpt lat="44.3251" lon="5.95714">
        <ele>749.23</ele>
        <time>2014-08-26T08:09:21Z</time>
      </trkpt>
      <trkpt lat="44.32517" lon="5.95709">
        <ele>748.77</ele>
        <time>2014-08-26T08:09:22Z</time>
      </trkpt>
      <trkpt lat="44.3257" lon="5.95661">
        <ele>745.68</ele>
        <time>2014-08-26T08:09:31Z</time>
      </trkpt>
      <trkpt lat="44.3262" lon="5.95621">
        <ele>744.83</ele>
        <time>2014-08-26T08:09:43Z</time>
      </trkpt>
      <trkpt lat="44.32665" lon="5.95581">
        <ele>743.34</ele>
        <time>2014-08-26T08:09:55Z</time>
      </trkpt>
      <trkpt lat="44.32677" lon="5.95576">
        <ele>742.62</ele>
        <time>2014-08-26T08:09:57Z</time>
      </trkpt>
      <trkpt lat="44.32683" lon="5.95576">
        <ele>742.16</ele>
        <time>2014-08-26T08:09:58Z</time>
      </trkpt>
      <trkpt lat="44.32689" lon="5.95576">
        <ele>741.64</ele>
        <time>2014-08-26T08:09:59Z</time>
      </trkpt>
      <trkpt lat="44.32711" lon="5.95581">
        <ele>739.43</ele>
        <time>2014-08-26T08:10:03Z</time>
      </trkpt>
      <trkpt lat="44.32733" lon="5.95583">
        <ele>736.39</ele>
        <time>2014-08-26T08:10:09Z</time>
      </trkpt>
      <trkpt lat="44.32735" lon="5.95587">
        <ele>734.81</ele>
        <time>2014-08-26T08:10:22Z</time>
      </trkpt>
      <trkpt lat="44.32743" lon="5.956">
        <ele>734.84</ele>
        <time>2014-08-26T08:10:47Z</time>
      </trkpt>
      <trkpt lat="44.32766" lon="5.95647">
        <ele>733.55</ele>
        <time>2014-08-26T08:10:57Z</time>
      </trkpt>
      <trkpt lat="44.32801" lon="5.95705">
        <ele>730.36</ele>
        <time>2014-08-26T08:11:06Z</time>
      </trkpt>
      <trkpt lat="44.32804" lon="5.95711">
        <ele>729.97</ele>
        <time>2014-08-26T08:11:07Z</time>
      </trkpt>
      <trkpt lat="44.32807" lon="5.95717">
        <ele>729.6</ele>
        <time>2014-08-26T08:11:08Z</time>
      </trkpt>
      <trkpt lat="44.32808" lon="5.95723">
        <ele>729.26</ele>
        <time>2014-08-26T08:11:09Z</time>
      </trkpt>
      <trkpt lat="44.32809" lon="5.9573">
        <ele>728.98</ele>
        <time>2014-08-26T08:11:10Z</time>
      </trkpt>
      <trkpt lat="44.32811" lon="5.95737">
        <ele>728.74</ele>
        <time>2014-08-26T08:11:11Z</time>
      </trkpt>
      <trkpt lat="44.32813" lon="5.95743">
        <ele>728.47</ele>
        <time>2014-08-26T08:11:12Z</time>
      </trkpt>
      <trkpt lat="44.32817" lon="5.95748">
        <ele>728.14</ele>
        <time>2014-08-26T08:11:13Z</time>
      </trkpt>
      <trkpt lat="44.32822" lon="5.9575">
        <ele>727.27</ele>
        <time>2014-08-26T08:11:14Z</time>
      </trkpt>
      <trkpt lat="44.32827" lon="5.95751">
        <ele>726.77</ele>
        <time>2014-08-26T08:11:15Z</time>
      </trkpt>
      <trkpt lat="44.32832" lon="5.9575">
        <ele>726.32</ele>
        <time>2014-08-26T08:11:16Z</time>
      </trkpt>
      <trkpt lat="44.32837" lon="5.95751">
        <ele>725.94</ele>
        <time>2014-08-26T08:11:17Z</time>
      </trkpt>
      <trkpt lat="44.32841" lon="5.95752">
        <ele>725.59</ele>
        <time>2014-08-26T08:11:18Z</time>
      </trkpt>
      <trkpt lat="44.3285" lon="5.95757">
        <ele>724.78</ele>
        <time>2014-08-26T08:11:20Z</time>
      </trkpt>
      <trkpt lat="44.32855" lon="5.95758">
        <ele>724.37</ele>
        <time>2014-08-26T08:11:21Z</time>
      </trkpt>
      <trkpt lat="44.32859" lon="5.95756">
        <ele>723.97</ele>
        <time>2014-08-26T08:11:22Z</time>
      </trkpt>
      <trkpt lat="44.32861" lon="5.95753">
        <ele>723.59</ele>
        <time>2014-08-26T08:11:23Z</time>
      </trkpt>
      <trkpt lat="44.32862" lon="5.9575">
        <ele>723.28</ele>
        <time>2014-08-26T08:11:24Z</time>
      </trkpt>
      <trkpt lat="44.32863" lon="5.95746">
        <ele>723.04</ele>
        <time>2014-08-26T08:11:25Z</time>
      </trkpt>
      <trkpt lat="44.32873" lon="5.95714">
        <ele>724.42</ele>
        <time>2014-08-26T08:11:37Z</time>
      </trkpt>
      <trkpt lat="44.32875" lon="5.95713">
        <ele>724.61</ele>
        <time>2014-08-26T08:11:38Z</time>
      </trkpt>
      <trkpt lat="44.32876" lon="5.95713">
        <ele>725.07</ele>
        <time>2014-08-26T08:11:39Z</time>
      </trkpt>
      <trkpt lat="44.32891" lon="5.95728">
        <ele>728.2</ele>
        <time>2014-08-26T08:11:52Z</time>
      </trkpt>
      <trkpt lat="44.3291" lon="5.95739">
        <ele>731.12</ele>
        <time>2014-08-26T08:12:06Z</time>
      </trkpt>
      <trkpt lat="44.32934" lon="5.95744">
        <ele>731.91</ele>
        <time>2014-08-26T08:12:20Z</time>
      </trkpt>
      <trkpt lat="44.32935" lon="5.95744">
        <ele>732</ele>
        <time>2014-08-26T08:12:21Z</time>
      </trkpt>
      <trkpt lat="44.32936" lon="5.95743">
        <ele>732.06</ele>
        <time>2014-08-26T08:12:22Z</time>
      </trkpt>
      <trkpt lat="44.32937" lon="5.95742">
        <ele>732.1</ele>
        <time>2014-08-26T08:12:23Z</time>
      </trkpt>
      <trkpt lat="44.32938" lon="5.95742">
        <ele>732.14</ele>
        <time>2014-08-26T08:12:24Z</time>
      </trkpt>
      <trkpt lat="44.32939" lon="5.95742">
        <ele>732.15</ele>
        <time>2014-08-26T08:12:25Z</time>
      </trkpt>
      <trkpt lat="44.3294" lon="5.95742">
        <ele>732.14</ele>
        <time>2014-08-26T08:12:26Z</time>
      </trkpt>
      <trkpt lat="44.32941" lon="5.95742">
        <ele>732.14</ele>
        <time>2014-08-26T08:12:27Z</time>
      </trkpt>
      <trkpt lat="44.32947" lon="5.95744">
        <ele>732.25</ele>
        <time>2014-08-26T08:12:33Z</time>
      </trkpt>
      <trkpt lat="44.32949" lon="5.95747">
        <ele>732.33</ele>
        <time>2014-08-26T08:12:44Z</time>
      </trkpt>
      <trkpt lat="44.32949" lon="5.95747">
        <ele>732.14</ele>
        <time>2014-08-26T08:13:02Z</time>
      </trkpt>
      <trkpt lat="44.32953" lon="5.95748">
        <ele>732.48</ele>
        <time>2014-08-26T08:13:18Z</time>
      </trkpt>
      <trkpt lat="44.32955" lon="5.95748">
        <ele>732.55</ele>
        <time>2014-08-26T08:13:20Z</time>
      </trkpt>
      <trkpt lat="44.32981" lon="5.95749">
        <ele>733.86</ele>
        <time>2014-08-26T08:13:35Z</time>
      </trkpt>
      <trkpt lat="44.33019" lon="5.95746">
        <ele>734.74</ele>
        <time>2014-08-26T08:13:51Z</time>
      </trkpt>
      <trkpt lat="44.33069" lon="5.95738">
        <ele>736.07</ele>
        <time>2014-08-26T08:14:12Z</time>
      </trkpt>
      <trkpt lat="44.33108" lon="5.95738">
        <ele>735.77</ele>
        <time>2014-08-26T08:14:27Z</time>
      </trkpt>
      <trkpt lat="44.33145" lon="5.9574">
        <ele>735.01</ele>
        <time>2014-08-26T08:14:39Z</time>
      </trkpt>
      <trkpt lat="44.33155" lon="5.9574">
        <ele>734.62</ele>
        <time>2014-08-26T08:14:41Z</time>
      </trkpt>
      <trkpt lat="44.33181" lon="5.95745">
        <ele>733.49</ele>
        <time>2014-08-26T08:14:46Z</time>
      </trkpt>
      <trkpt lat="44.33187" lon="5.95746">
        <ele>733.22</ele>
        <time>2014-08-26T08:14:47Z</time>
      </trkpt>
      <trkpt lat="44.33199" lon="5.95748">
        <ele>732.54</ele>
        <time>2014-08-26T08:14:49Z</time>
      </trkpt>
      <trkpt lat="44.33239" lon="5.95767">
        <ele>730.24</ele>
        <time>2014-08-26T08:14:56Z</time>
      </trkpt>
      <trkpt lat="44.33248" lon="5.95772">
        <ele>730</ele>
        <time>2014-08-26T08:14:58Z</time>
      </trkpt>
      <trkpt lat="44.33252" lon="5.95775">
        <ele>729.94</ele>
        <time>2014-08-26T08:14:59Z</time>
      </trkpt>
      <trkpt lat="44.33281" lon="5.958">
        <ele>730.08</ele>
        <time>2014-08-26T08:15:07Z</time>
      </trkpt>
      <trkpt lat="44.33321" lon="5.95823">
        <ele>730.29</ele>
        <time>2014-08-26T08:15:20Z</time>
      </trkpt>
      <trkpt lat="44.33364" lon="5.95793">
        <ele>728.79</ele>
        <time>2014-08-26T08:15:29Z</time>
      </trkpt>
      <trkpt lat="44.33405" lon="5.95762">
        <ele>725.47</ele>
        <time>2014-08-26T08:15:35Z</time>
      </trkpt>
      <trkpt lat="44.33451" lon="5.95733">
        <ele>722.19</ele>
        <time>2014-08-26T08:15:42Z</time>
      </trkpt>
      <trkpt lat="44.33497" lon="5.95716">
        <ele>720.97</ele>
        <time>2014-08-26T08:15:53Z</time>
      </trkpt>
      <trkpt lat="44.33537" lon="5.95704">
        <ele>722.87</ele>
        <time>2014-08-26T08:16:11Z</time>
      </trkpt>
      <trkpt lat="44.33564" lon="5.95693">
        <ele>725.98</ele>
        <time>2014-08-26T08:16:28Z</time>
      </trkpt>
      <trkpt lat="44.33587" lon="5.95674">
        <ele>729.02</ele>
        <time>2014-08-26T08:16:46Z</time>
      </trkpt>
      <trkpt lat="44.33594" lon="5.95661">
        <ele>730.44</ele>
        <time>2014-08-26T08:16:54Z</time>
      </trkpt>
      <trkpt lat="44.33596" lon="5.95662">
        <ele>730.59</ele>
        <time>2014-08-26T08:16:55Z</time>
      </trkpt>
      <trkpt lat="44.33598" lon="5.95662">
        <ele>730.72</ele>
        <time>2014-08-26T08:16:56Z</time>
      </trkpt>
      <trkpt lat="44.33599" lon="5.95663">
        <ele>730.82</ele>
        <time>2014-08-26T08:16:57Z</time>
      </trkpt>
      <trkpt lat="44.33601" lon="5.95663">
        <ele>730.9</ele>
        <time>2014-08-26T08:16:58Z</time>
      </trkpt>
      <trkpt lat="44.33603" lon="5.95664">
        <ele>730.95</ele>
        <time>2014-08-26T08:16:59Z</time>
      </trkpt>
      <trkpt lat="44.33629" lon="5.95689">
        <ele>731.24</ele>
        <time>2014-08-26T08:17:15Z</time>
      </trkpt>
      <trkpt lat="44.33638" lon="5.95718">
        <ele>731.1</ele>
        <time>2014-08-26T08:17:22Z</time>
      </trkpt>
      <trkpt lat="44.33666" lon="5.95775">
        <ele>729.84</ele>
        <time>2014-08-26T08:17:37Z</time>
      </trkpt>
      <trkpt lat="44.33667" lon="5.95828">
        <ele>731.73</ele>
        <time>2014-08-26T08:17:54Z</time>
      </trkpt>
      <trkpt lat="44.33665" lon="5.95863">
        <ele>733.64</ele>
        <time>2014-08-26T08:18:06Z</time>
      </trkpt>
      <trkpt lat="44.33671" lon="5.95924">
        <ele>734.12</ele>
        <time>2014-08-26T08:18:24Z</time>
      </trkpt>
      <trkpt lat="44.33662" lon="5.95989">
        <ele>734.01</ele>
        <time>2014-08-26T08:18:39Z</time>
      </trkpt>
      <trkpt lat="44.3366" lon="5.95994">
        <ele>734.01</ele>
        <time>2014-08-26T08:18:40Z</time>
      </trkpt>
      <trkpt lat="44.33631" lon="5.96034">
        <ele>733.06</ele>
        <time>2014-08-26T08:18:52Z</time>
      </trkpt>
      <trkpt lat="44.33627" lon="5.96082">
        <ele>732.9</ele>
        <time>2014-08-26T08:19:05Z</time>
      </trkpt>
      <trkpt lat="44.33642" lon="5.96125">
        <ele>732.17</ele>
        <time>2014-08-26T08:19:20Z</time>
      </trkpt>
      <trkpt lat="44.33657" lon="5.96171">
        <ele>731.67</ele>
        <time>2014-08-26T08:19:32Z</time>
      </trkpt>
      <trkpt lat="44.33677" lon="5.9622">
        <ele>731.21</ele>
        <time>2014-08-26T08:19:45Z</time>
      </trkpt>
      <trkpt lat="44.33698" lon="5.96244">
        <ele>732.66</ele>
        <time>2014-08-26T08:19:57Z</time>
      </trkpt>
      <trkpt lat="44.33714" lon="5.96272">
        <ele>734.77</ele>
        <time>2014-08-26T08:20:09Z</time>
      </trkpt>
      <trkpt lat="44.33724" lon="5.96306">
        <ele>737.82</ele>
        <time>2014-08-26T08:20:23Z</time>
      </trkpt>
      <trkpt lat="44.33739" lon="5.96341">
        <ele>740.91</ele>
        <time>2014-08-26T08:20:39Z</time>
      </trkpt>
      <trkpt lat="44.3374" lon="5.96375">
        <ele>743.76</ele>
        <time>2014-08-26T08:20:52Z</time>
      </trkpt>
      <trkpt lat="44.33744" lon="5.96404">
        <ele>745.93</ele>
        <time>2014-08-26T08:21:07Z</time>
      </trkpt>
      <trkpt lat="44.33744" lon="5.96408">
        <ele>746.05</ele>
        <time>2014-08-26T08:21:22Z</time>
      </trkpt>
      <trkpt lat="44.3374" lon="5.96404">
        <ele>745.98</ele>
        <time>2014-08-26T08:21:54Z</time>
      </trkpt>
      <trkpt lat="44.3374" lon="5.96406">
        <ele>746.25</ele>
        <time>2014-08-26T08:22:23Z</time>
      </trkpt>
      <trkpt lat="44.33737" lon="5.96408">
        <ele>746.54</ele>
        <time>2014-08-26T08:23:31Z</time>
      </trkpt>
      <trkpt lat="44.33737" lon="5.96413">
        <ele>747</ele>
        <time>2014-08-26T08:24:05Z</time>
      </trkpt>
      <trkpt lat="44.33739" lon="5.96411">
        <ele>748.13</ele>
        <time>2014-08-26T08:24:54Z</time>
      </trkpt>
      <trkpt lat="44.3374" lon="5.96412">
        <ele>748.97</ele>
        <time>2014-08-26T08:25:23Z</time>
      </trkpt>
      <trkpt lat="44.3374" lon="5.96416">
        <ele>749.74</ele>
        <time>2014-08-26T08:25:47Z</time>
      </trkpt>
      <trkpt lat="44.33742" lon="5.96422">
        <ele>750.43</ele>
        <time>2014-08-26T08:26:03Z</time>
      </trkpt>
      <trkpt lat="44.33743" lon="5.96424">
        <ele>750.45</ele>
        <time>2014-08-26T08:26:04Z</time>
      </trkpt>
      <trkpt lat="44.33744" lon="5.9643">
        <ele>750.55</ele>
        <time>2014-08-26T08:26:07Z</time>
      </trkpt>
      <trkpt lat="44.33744" lon="5.96432">
        <ele>750.58</ele>
        <time>2014-08-26T08:26:08Z</time>
      </trkpt>
      <trkpt lat="44.33745" lon="5.96436">
        <ele>750.73</ele>
        <time>2014-08-26T08:26:11Z</time>
      </trkpt>
      <trkpt lat="44.33746" lon="5.96437">
        <ele>750.79</ele>
        <time>2014-08-26T08:26:12Z</time>
      </trkpt>
      <trkpt lat="44.33753" lon="5.96471">
        <ele>751.87</ele>
        <time>2014-08-26T08:26:27Z</time>
      </trkpt>
      <trkpt lat="44.33758" lon="5.96511">
        <ele>753.82</ele>
        <time>2014-08-26T08:26:44Z</time>
      </trkpt>
      <trkpt lat="44.33761" lon="5.96532">
        <ele>754.81</ele>
        <time>2014-08-26T08:26:52Z</time>
      </trkpt>
      <trkpt lat="44.3376" lon="5.96535">
        <ele>755.01</ele>
        <time>2014-08-26T08:26:53Z</time>
      </trkpt>
      <trkpt lat="44.3376" lon="5.96537">
        <ele>755.2</ele>
        <time>2014-08-26T08:26:54Z</time>
      </trkpt>
      <trkpt lat="44.3376" lon="5.96539">
        <ele>755.39</ele>
        <time>2014-08-26T08:26:55Z</time>
      </trkpt>
      <trkpt lat="44.3376" lon="5.96542">
        <ele>755.58</ele>
        <time>2014-08-26T08:26:56Z</time>
      </trkpt>
      <trkpt lat="44.3376" lon="5.96544">
        <ele>755.96</ele>
        <time>2014-08-26T08:26:57Z</time>
      </trkpt>
      <trkpt lat="44.33762" lon="5.96584">
        <ele>759.11</ele>
        <time>2014-08-26T08:27:14Z</time>
      </trkpt>
      <trkpt lat="44.33759" lon="5.9662">
        <ele>761.51</ele>
        <time>2014-08-26T08:27:30Z</time>
      </trkpt>
      <trkpt lat="44.33746" lon="5.96652">
        <ele>764.65</ele>
        <time>2014-08-26T08:27:46Z</time>
      </trkpt>
      <trkpt lat="44.33729" lon="5.96675">
        <ele>767.1</ele>
        <time>2014-08-26T08:28:00Z</time>
      </trkpt>
      <trkpt lat="44.33709" lon="5.967">
        <ele>769.83</ele>
        <time>2014-08-26T08:28:17Z</time>
      </trkpt>
      <trkpt lat="44.33691" lon="5.96725">
        <ele>771.65</ele>
        <time>2014-08-26T08:28:31Z</time>
      </trkpt>
      <trkpt lat="44.33681" lon="5.96737">
        <ele>772.76</ele>
        <time>2014-08-26T08:28:43Z</time>
      </trkpt>
      <trkpt lat="44.33682" lon="5.9674">
        <ele>772.96</ele>
        <time>2014-08-26T08:29:04Z</time>
      </trkpt>
      <trkpt lat="44.33685" lon="5.96743">
        <ele>773.09</ele>
        <time>2014-08-26T08:29:28Z</time>
      </trkpt>
      <trkpt lat="44.33683" lon="5.96743">
        <ele>773.31</ele>
        <time>2014-08-26T08:29:55Z</time>
      </trkpt>
      <trkpt lat="44.33681" lon="5.96742">
        <ele>773.07</ele>
        <time>2014-08-26T08:30:20Z</time>
      </trkpt>
      <trkpt lat="44.3368" lon="5.96741">
        <ele>773.14</ele>
        <time>2014-08-26T08:30:41Z</time>
      </trkpt>
      <trkpt lat="44.33676" lon="5.9674">
        <ele>773.29</ele>
        <time>2014-08-26T08:30:58Z</time>
      </trkpt>
      <trkpt lat="44.33675" lon="5.96742">
        <ele>773.29</ele>
        <time>2014-08-26T08:30:59Z</time>
      </trkpt>
      <trkpt lat="44.33674" lon="5.96743">
        <ele>773.31</ele>
        <time>2014-08-26T08:31:00Z</time>
      </trkpt>
      <trkpt lat="44.33673" lon="5.96745">
        <ele>773.3</ele>
        <time>2014-08-26T08:31:01Z</time>
      </trkpt>
      <trkpt lat="44.33672" lon="5.96748">
        <ele>773.3</ele>
        <time>2014-08-26T08:31:02Z</time>
      </trkpt>
      <trkpt lat="44.33671" lon="5.96751">
        <ele>773.29</ele>
        <time>2014-08-26T08:31:03Z</time>
      </trkpt>
      <trkpt lat="44.3367" lon="5.96755">
        <ele>773.23</ele>
        <time>2014-08-26T08:31:04Z</time>
      </trkpt>
      <trkpt lat="44.3367" lon="5.96759">
        <ele>773.14</ele>
        <time>2014-08-26T08:31:05Z</time>
      </trkpt>
      <trkpt lat="44.33671" lon="5.96763">
        <ele>773.06</ele>
        <time>2014-08-26T08:31:06Z</time>
      </trkpt>
      <trkpt lat="44.33671" lon="5.96766">
        <ele>772.96</ele>
        <time>2014-08-26T08:31:07Z</time>
      </trkpt>
      <trkpt lat="44.33672" lon="5.96768">
        <ele>772.87</ele>
        <time>2014-08-26T08:31:08Z</time>
      </trkpt>
      <trkpt lat="44.33673" lon="5.96771">
        <ele>772.76</ele>
        <time>2014-08-26T08:31:09Z</time>
      </trkpt>
      <trkpt lat="44.33675" lon="5.96802">
        <ele>774.15</ele>
        <time>2014-08-26T08:31:23Z</time>
      </trkpt>
      <trkpt lat="44.33671" lon="5.96849">
        <ele>774.29</ele>
        <time>2014-08-26T08:31:35Z</time>
      </trkpt>
      <trkpt lat="44.33682" lon="5.96891">
        <ele>774.19</ele>
        <time>2014-08-26T08:31:46Z</time>
      </trkpt>
      <trkpt lat="44.33711" lon="5.96932">
        <ele>776.67</ele>
        <time>2014-08-26T08:32:01Z</time>
      </trkpt>
      <trkpt lat="44.33732" lon="5.96968">
        <ele>778.13</ele>
        <time>2014-08-26T08:32:15Z</time>
      </trkpt>
      <trkpt lat="44.33746" lon="5.96991">
        <ele>778.9</ele>
        <time>2014-08-26T08:32:28Z</time>
      </trkpt>
      <trkpt lat="44.33755" lon="5.96996">
        <ele>778.96</ele>
        <time>2014-08-26T08:32:32Z</time>
      </trkpt>
      <trkpt lat="44.33758" lon="5.96994">
        <ele>778.93</ele>
        <time>2014-08-26T08:32:33Z</time>
      </trkpt>
      <trkpt lat="44.33762" lon="5.96992">
        <ele>778.87</ele>
        <time>2014-08-26T08:32:34Z</time>
      </trkpt>
      <trkpt lat="44.33767" lon="5.96989">
        <ele>778.79</ele>
        <time>2014-08-26T08:32:35Z</time>
      </trkpt>
      <trkpt lat="44.33771" lon="5.96986">
        <ele>778.67</ele>
        <time>2014-08-26T08:32:36Z</time>
      </trkpt>
      <trkpt lat="44.33827" lon="5.96951">
        <ele>775.24</ele>
        <time>2014-08-26T08:32:45Z</time>
      </trkpt>
      <trkpt lat="44.3384" lon="5.96944">
        <ele>774.29</ele>
        <time>2014-08-26T08:32:47Z</time>
      </trkpt>
      <trkpt lat="44.33865" lon="5.96927">
        <ele>772.81</ele>
        <time>2014-08-26T08:32:52Z</time>
      </trkpt>
      <trkpt lat="44.33886" lon="5.96907">
        <ele>772.52</ele>
        <time>2014-08-26T08:32:57Z</time>
      </trkpt>
      <trkpt lat="44.33933" lon="5.9683">
        <ele>771.4</ele>
        <time>2014-08-26T08:33:10Z</time>
      </trkpt>
      <trkpt lat="44.33959" lon="5.96769">
        <ele>772.04</ele>
        <time>2014-08-26T08:33:24Z</time>
      </trkpt>
      <trkpt lat="44.33981" lon="5.96722">
        <ele>772.73</ele>
        <time>2014-08-26T08:33:37Z</time>
      </trkpt>
      <trkpt lat="44.34" lon="5.96668">
        <ele>773.79</ele>
        <time>2014-08-26T08:33:51Z</time>
      </trkpt>
      <trkpt lat="44.34019" lon="5.96644">
        <ele>776.14</ele>
        <time>2014-08-26T08:34:05Z</time>
      </trkpt>
      <trkpt lat="44.3402" lon="5.96646">
        <ele>776.64</ele>
        <time>2014-08-26T08:34:21Z</time>
      </trkpt>
      <trkpt lat="44.3402" lon="5.96643">
        <ele>776.81</ele>
        <time>2014-08-26T08:34:35Z</time>
      </trkpt>
      <trkpt lat="44.34021" lon="5.96641">
        <ele>776.79</ele>
        <time>2014-08-26T08:34:36Z</time>
      </trkpt>
      <trkpt lat="44.34037" lon="5.96597">
        <ele>776.19</ele>
        <time>2014-08-26T08:34:49Z</time>
      </trkpt>
      <trkpt lat="44.34059" lon="5.96574">
        <ele>775.89</ele>
        <time>2014-08-26T08:35:00Z</time>
      </trkpt>
      <trkpt lat="44.34097" lon="5.96596">
        <ele>774.4</ele>
        <time>2014-08-26T08:35:10Z</time>
      </trkpt>
      <trkpt lat="44.34135" lon="5.96613">
        <ele>770.36</ele>
        <time>2014-08-26T08:35:17Z</time>
      </trkpt>
      <trkpt lat="44.34153" lon="5.96623">
        <ele>768.51</ele>
        <time>2014-08-26T08:35:21Z</time>
      </trkpt>
      <trkpt lat="44.34177" lon="5.96621">
        <ele>765.82</ele>
        <time>2014-08-26T08:35:27Z</time>
      </trkpt>
      <trkpt lat="44.34205" lon="5.96607">
        <ele>763.53</ele>
        <time>2014-08-26T08:35:35Z</time>
      </trkpt>
      <trkpt lat="44.34239" lon="5.96609">
        <ele>761.13</ele>
        <time>2014-08-26T08:35:42Z</time>
      </trkpt>
      <trkpt lat="44.34253" lon="5.96613">
        <ele>760.05</ele>
        <time>2014-08-26T08:35:45Z</time>
      </trkpt>
      <trkpt lat="44.34293" lon="5.96627">
        <ele>757.74</ele>
        <time>2014-08-26T08:35:57Z</time>
      </trkpt>
      <trkpt lat="44.34292" lon="5.96633">
        <ele>757.56</ele>
        <time>2014-08-26T08:36:31Z</time>
      </trkpt>
      <trkpt lat="44.34297" lon="5.96631">
        <ele>757.5</ele>
        <time>2014-08-26T08:36:48Z</time>
      </trkpt>
      <trkpt lat="44.34314" lon="5.96619">
        <ele>757.5</ele>
        <time>2014-08-26T08:36:56Z</time>
      </trkpt>
      <trkpt lat="44.34354" lon="5.966">
        <ele>760.09</ele>
        <time>2014-08-26T08:37:11Z</time>
      </trkpt>
      <trkpt lat="44.34395" lon="5.96598">
        <ele>759.56</ele>
        <time>2014-08-26T08:37:21Z</time>
      </trkpt>
      <trkpt lat="44.34417" lon="5.96595">
        <ele>759.26</ele>
        <time>2014-08-26T08:37:30Z</time>
      </trkpt>
      <trkpt lat="44.34432" lon="5.96591">
        <ele>759.89</ele>
        <time>2014-08-26T08:37:38Z</time>
      </trkpt>
      <trkpt lat="44.34446" lon="5.96607">
        <ele>761.03</ele>
        <time>2014-08-26T08:37:45Z</time>
      </trkpt>
      <trkpt lat="44.34453" lon="5.96614">
        <ele>762.03</ele>
        <time>2014-08-26T08:37:49Z</time>
      </trkpt>
      <trkpt lat="44.34479" lon="5.96629">
        <ele>765.36</ele>
        <time>2014-08-26T08:38:02Z</time>
      </trkpt>
      <trkpt lat="44.3452" lon="5.96652">
        <ele>766.95</ele>
        <time>2014-08-26T08:38:19Z</time>
      </trkpt>
      <trkpt lat="44.34556" lon="5.96679">
        <ele>769.3</ele>
        <time>2014-08-26T08:38:35Z</time>
      </trkpt>
      <trkpt lat="44.34581" lon="5.96705">
        <ele>771.42</ele>
        <time>2014-08-26T08:38:50Z</time>
      </trkpt>
      <trkpt lat="44.34573" lon="5.96736">
        <ele>772.48</ele>
        <time>2014-08-26T08:38:59Z</time>
      </trkpt>
      <trkpt lat="44.34589" lon="5.96771">
        <ele>771.49</ele>
        <time>2014-08-26T08:39:04Z</time>
      </trkpt>
      <trkpt lat="44.34623" lon="5.96827">
        <ele>767.99</ele>
        <time>2014-08-26T08:39:11Z</time>
      </trkpt>
      <trkpt lat="44.34656" lon="5.96887">
        <ele>766.73</ele>
        <time>2014-08-26T08:39:23Z</time>
      </trkpt>
      <trkpt lat="44.34684" lon="5.96944">
        <ele>766.94</ele>
        <time>2014-08-26T08:39:38Z</time>
      </trkpt>
      <trkpt lat="44.34689" lon="5.97004">
        <ele>767.11</ele>
        <time>2014-08-26T08:39:52Z</time>
      </trkpt>
      <trkpt lat="44.34639" lon="5.9706">
        <ele>776.34</ele>
        <time>2014-08-26T08:47:01Z</time>
      </trkpt>
      <trkpt lat="44.34639" lon="5.97062">
        <ele>776.46</ele>
        <time>2014-08-26T08:47:36Z</time>
      </trkpt>
      <trkpt lat="44.34637" lon="5.97062">
        <ele>776.67</ele>
        <time>2014-08-26T08:47:39Z</time>
      </trkpt>
      <trkpt lat="44.34627" lon="5.97072">
        <ele>778.49</ele>
        <time>2014-08-26T08:47:54Z</time>
      </trkpt>
      <trkpt lat="44.34616" lon="5.97079">
        <ele>780.99</ele>
        <time>2014-08-26T08:48:12Z</time>
      </trkpt>
      <trkpt lat="44.34606" lon="5.97086">
        <ele>784.04</ele>
        <time>2014-08-26T08:48:30Z</time>
      </trkpt>
      <trkpt lat="44.34594" lon="5.97095">
        <ele>786.97</ele>
        <time>2014-08-26T08:48:49Z</time>
      </trkpt>
      <trkpt lat="44.34584" lon="5.97103">
        <ele>789.37</ele>
        <time>2014-08-26T08:49:04Z</time>
      </trkpt>
      <trkpt lat="44.34571" lon="5.9711">
        <ele>791.56</ele>
        <time>2014-08-26T08:49:20Z</time>
      </trkpt>
      <trkpt lat="44.34559" lon="5.97111">
        <ele>793.44</ele>
        <time>2014-08-26T08:49:34Z</time>
      </trkpt>
      <trkpt lat="44.34554" lon="5.97112">
        <ele>793.92</ele>
        <time>2014-08-26T08:49:40Z</time>
      </trkpt>
      <trkpt lat="44.34551" lon="5.97112">
        <ele>794.24</ele>
        <time>2014-08-26T08:49:43Z</time>
      </trkpt>
      <trkpt lat="44.34544" lon="5.97117">
        <ele>795.03</ele>
        <time>2014-08-26T08:49:50Z</time>
      </trkpt>
      <trkpt lat="44.34542" lon="5.97118">
        <ele>795.4</ele>
        <time>2014-08-26T08:49:52Z</time>
      </trkpt>
      <trkpt lat="44.34536" lon="5.97123">
        <ele>796.55</ele>
        <time>2014-08-26T08:50:00Z</time>
      </trkpt>
      <trkpt lat="44.34523" lon="5.97131">
        <ele>798.94</ele>
        <time>2014-08-26T08:50:16Z</time>
      </trkpt>
      <trkpt lat="44.34517" lon="5.97131">
        <ele>800.24</ele>
        <time>2014-08-26T08:50:25Z</time>
      </trkpt>
      <trkpt lat="44.34502" lon="5.97139">
        <ele>803.24</ele>
        <time>2014-08-26T08:50:44Z</time>
      </trkpt>
      <trkpt lat="44.34488" lon="5.97142">
        <ele>806.38</ele>
        <time>2014-08-26T08:51:03Z</time>
      </trkpt>
      <trkpt lat="44.34478" lon="5.97147">
        <ele>809.4</ele>
        <time>2014-08-26T08:51:20Z</time>
      </trkpt>
      <trkpt lat="44.34464" lon="5.97149">
        <ele>812.46</ele>
        <time>2014-08-26T08:51:37Z</time>
      </trkpt>
      <trkpt lat="44.34451" lon="5.9715">
        <ele>815.46</ele>
        <time>2014-08-26T08:51:54Z</time>
      </trkpt>
      <trkpt lat="44.34441" lon="5.97153">
        <ele>817.26</ele>
        <time>2014-08-26T08:52:06Z</time>
      </trkpt>
      <trkpt lat="44.34423" lon="5.97165">
        <ele>819.56</ele>
        <time>2014-08-26T08:52:27Z</time>
      </trkpt>
      <trkpt lat="44.34409" lon="5.97175">
        <ele>820.84</ele>
        <time>2014-08-26T08:52:43Z</time>
      </trkpt>
      <trkpt lat="44.34397" lon="5.97184">
        <ele>822.69</ele>
        <time>2014-08-26T08:52:59Z</time>
      </trkpt>
      <trkpt lat="44.34391" lon="5.97191">
        <ele>823.8</ele>
        <time>2014-08-26T08:53:27Z</time>
      </trkpt>
      <trkpt lat="44.34389" lon="5.97192">
        <ele>824.09</ele>
        <time>2014-08-26T08:53:31Z</time>
      </trkpt>
      <trkpt lat="44.34374" lon="5.9721">
        <ele>826.56</ele>
        <time>2014-08-26T08:53:51Z</time>
      </trkpt>
      <trkpt lat="44.34368" lon="5.97219">
        <ele>827.68</ele>
        <time>2014-08-26T08:53:59Z</time>
      </trkpt>
      <trkpt lat="44.34363" lon="5.97228">
        <ele>829.14</ele>
        <time>2014-08-26T08:54:08Z</time>
      </trkpt>
      <trkpt lat="44.34351" lon="5.97244">
        <ele>831.83</ele>
        <time>2014-08-26T08:54:26Z</time>
      </trkpt>
      <trkpt lat="44.34346" lon="5.97253">
        <ele>833.21</ele>
        <time>2014-08-26T08:54:36Z</time>
      </trkpt>
      <trkpt lat="44.34337" lon="5.9727">
        <ele>835.77</ele>
        <time>2014-08-26T08:54:53Z</time>
      </trkpt>
      <trkpt lat="44.34327" lon="5.97283">
        <ele>838.11</ele>
        <time>2014-08-26T08:55:09Z</time>
      </trkpt>
      <trkpt lat="44.34318" lon="5.97292">
        <ele>841.32</ele>
        <time>2014-08-26T08:55:24Z</time>
      </trkpt>
      <trkpt lat="44.34307" lon="5.97296">
        <ele>844.39</ele>
        <time>2014-08-26T08:55:41Z</time>
      </trkpt>
      <trkpt lat="44.34298" lon="5.97289">
        <ele>847.59</ele>
        <time>2014-08-26T08:55:57Z</time>
      </trkpt>
      <trkpt lat="44.34294" lon="5.97287">
        <ele>849.83</ele>
        <time>2014-08-26T08:56:15Z</time>
      </trkpt>
      <trkpt lat="44.34291" lon="5.97293">
        <ele>850.68</ele>
        <time>2014-08-26T08:56:36Z</time>
      </trkpt>
      <trkpt lat="44.34288" lon="5.97304">
        <ele>851.66</ele>
        <time>2014-08-26T08:56:54Z</time>
      </trkpt>
      <trkpt lat="44.34291" lon="5.9731">
        <ele>851.79</ele>
        <time>2014-08-26T08:57:18Z</time>
      </trkpt>
      <trkpt lat="44.34289" lon="5.9731">
        <ele>852.02</ele>
        <time>2014-08-26T08:57:47Z</time>
      </trkpt>
      <trkpt lat="44.3429" lon="5.97308">
        <ele>851.94</ele>
        <time>2014-08-26T08:58:10Z</time>
      </trkpt>
      <trkpt lat="44.34292" lon="5.97311">
        <ele>852.19</ele>
        <time>2014-08-26T08:58:37Z</time>
      </trkpt>
      <trkpt lat="44.3429" lon="5.97311">
        <ele>852.34</ele>
        <time>2014-08-26T08:59:00Z</time>
      </trkpt>
      <trkpt lat="44.34289" lon="5.97308">
        <ele>852.38</ele>
        <time>2014-08-26T08:59:25Z</time>
      </trkpt>
      <trkpt lat="44.34289" lon="5.97306">
        <ele>852.14</ele>
        <time>2014-08-26T08:59:47Z</time>
      </trkpt>
      <trkpt lat="44.34291" lon="5.97304">
        <ele>852.23</ele>
        <time>2014-08-26T09:00:09Z</time>
      </trkpt>
      <trkpt lat="44.34291" lon="5.97307">
        <ele>852.49</ele>
        <time>2014-08-26T09:00:35Z</time>
      </trkpt>
      <trkpt lat="44.3429" lon="5.97316">
        <ele>853.04</ele>
        <time>2014-08-26T09:00:48Z</time>
      </trkpt>
      <trkpt lat="44.34291" lon="5.97344">
        <ele>853.37</ele>
        <time>2014-08-26T09:01:02Z</time>
      </trkpt>
      <trkpt lat="44.34285" lon="5.97379">
        <ele>854.22</ele>
        <time>2014-08-26T09:01:15Z</time>
      </trkpt>
      <trkpt lat="44.34282" lon="5.97397">
        <ele>853.91</ele>
        <time>2014-08-26T09:01:20Z</time>
      </trkpt>
      <trkpt lat="44.34265" lon="5.97422">
        <ele>851.39</ele>
        <time>2014-08-26T09:01:27Z</time>
      </trkpt>
      <trkpt lat="44.34247" lon="5.97462">
        <ele>847.95</ele>
        <time>2014-08-26T09:01:38Z</time>
      </trkpt>
      <trkpt lat="44.34237" lon="5.97482">
        <ele>846.37</ele>
        <time>2014-08-26T09:01:48Z</time>
      </trkpt>
      <trkpt lat="44.34234" lon="5.97492">
        <ele>846.88</ele>
        <time>2014-08-26T09:02:10Z</time>
      </trkpt>
      <trkpt lat="44.34231" lon="5.97499">
        <ele>847.58</ele>
        <time>2014-08-26T09:02:16Z</time>
      </trkpt>
      <trkpt lat="44.34228" lon="5.9751">
        <ele>848.92</ele>
        <time>2014-08-26T09:02:25Z</time>
      </trkpt>
      <trkpt lat="44.3422" lon="5.97525">
        <ele>851.34</ele>
        <time>2014-08-26T09:02:39Z</time>
      </trkpt>
      <trkpt lat="44.34214" lon="5.97547">
        <ele>854.4</ele>
        <time>2014-08-26T09:02:57Z</time>
      </trkpt>
      <trkpt lat="44.34212" lon="5.97565">
        <ele>857.09</ele>
        <time>2014-08-26T09:03:14Z</time>
      </trkpt>
      <trkpt lat="44.34207" lon="5.97585">
        <ele>859.11</ele>
        <time>2014-08-26T09:03:30Z</time>
      </trkpt>
      <trkpt lat="44.34202" lon="5.97595">
        <ele>860.84</ele>
        <time>2014-08-26T09:03:39Z</time>
      </trkpt>
      <trkpt lat="44.34199" lon="5.9762">
        <ele>861.28</ele>
        <time>2014-08-26T09:03:48Z</time>
      </trkpt>
      <trkpt lat="44.34194" lon="5.97644">
        <ele>862.64</ele>
        <time>2014-08-26T09:04:00Z</time>
      </trkpt>
      <trkpt lat="44.34195" lon="5.97646">
        <ele>862.63</ele>
        <time>2014-08-26T09:04:01Z</time>
      </trkpt>
      <trkpt lat="44.34191" lon="5.97662">
        <ele>862.36</ele>
        <time>2014-08-26T09:04:08Z</time>
      </trkpt>
      <trkpt lat="44.3419" lon="5.97669">
        <ele>862.28</ele>
        <time>2014-08-26T09:04:11Z</time>
      </trkpt>
      <trkpt lat="44.34194" lon="5.97698">
        <ele>863.19</ele>
        <time>2014-08-26T09:04:24Z</time>
      </trkpt>
      <trkpt lat="44.34199" lon="5.97712">
        <ele>864.76</ele>
        <time>2014-08-26T09:04:32Z</time>
      </trkpt>
      <trkpt lat="44.34202" lon="5.97719">
        <ele>865.53</ele>
        <time>2014-08-26T09:04:36Z</time>
      </trkpt>
      <trkpt lat="44.34208" lon="5.97732">
        <ele>867.66</ele>
        <time>2014-08-26T09:04:45Z</time>
      </trkpt>
      <trkpt lat="44.3422" lon="5.97764">
        <ele>869.15</ele>
        <time>2014-08-26T09:05:00Z</time>
      </trkpt>
      <trkpt lat="44.34229" lon="5.97799">
        <ele>868.56</ele>
        <time>2014-08-26T09:05:12Z</time>
      </trkpt>
      <trkpt lat="44.34235" lon="5.97835">
        <ele>869.82</ele>
        <time>2014-08-26T09:05:26Z</time>
      </trkpt>
      <trkpt lat="44.34236" lon="5.97843">
        <ele>870.23</ele>
        <time>2014-08-26T09:05:29Z</time>
      </trkpt>
      <trkpt lat="44.34236" lon="5.97878">
        <ele>872.98</ele>
        <time>2014-08-26T09:05:44Z</time>
      </trkpt>
      <trkpt lat="44.3424" lon="5.97891">
        <ele>873.98</ele>
        <time>2014-08-26T09:05:50Z</time>
      </trkpt>
      <trkpt lat="44.34244" lon="5.97933">
        <ele>874.54</ele>
        <time>2014-08-26T09:06:05Z</time>
      </trkpt>
      <trkpt lat="44.34242" lon="5.97989">
        <ele>874.52</ele>
        <time>2014-08-26T09:06:21Z</time>
      </trkpt>
      <trkpt lat="44.34252" lon="5.98038">
        <ele>873.44</ele>
        <time>2014-08-26T09:06:35Z</time>
      </trkpt>
      <trkpt lat="44.34271" lon="5.98071">
        <ele>871.73</ele>
        <time>2014-08-26T09:06:42Z</time>
      </trkpt>
      <trkpt lat="44.34277" lon="5.98084">
        <ele>871.04</ele>
        <time>2014-08-26T09:06:44Z</time>
      </trkpt>
      <trkpt lat="44.34283" lon="5.98105">
        <ele>869.8</ele>
        <time>2014-08-26T09:06:47Z</time>
      </trkpt>
      <trkpt lat="44.34289" lon="5.9813">
        <ele>868.08</ele>
        <time>2014-08-26T09:06:51Z</time>
      </trkpt>
      <trkpt lat="44.34294" lon="5.98146">
        <ele>867.44</ele>
        <time>2014-08-26T09:06:54Z</time>
      </trkpt>
      <trkpt lat="44.34309" lon="5.9816">
        <ele>866.74</ele>
        <time>2014-08-26T09:06:59Z</time>
      </trkpt>
      <trkpt lat="44.34329" lon="5.98176">
        <ele>865.59</ele>
        <time>2014-08-26T09:07:03Z</time>
      </trkpt>
      <trkpt lat="44.34349" lon="5.98187">
        <ele>863.26</ele>
        <time>2014-08-26T09:07:12Z</time>
      </trkpt>
      <trkpt lat="44.34354" lon="5.98193">
        <ele>862.79</ele>
        <time>2014-08-26T09:07:16Z</time>
      </trkpt>
      <trkpt lat="44.34356" lon="5.98195">
        <ele>862.53</ele>
        <time>2014-08-26T09:07:19Z</time>
      </trkpt>
      <trkpt lat="44.34371" lon="5.98206">
        <ele>861.08</ele>
        <time>2014-08-26T09:07:29Z</time>
      </trkpt>
      <trkpt lat="44.34381" lon="5.98216">
        <ele>860.4</ele>
        <time>2014-08-26T09:07:35Z</time>
      </trkpt>
      <trkpt lat="44.34393" lon="5.9822">
        <ele>859.95</ele>
        <time>2014-08-26T09:07:43Z</time>
      </trkpt>
      <trkpt lat="44.34399" lon="5.9823">
        <ele>859.85</ele>
        <time>2014-08-26T09:07:48Z</time>
      </trkpt>
      <trkpt lat="44.34412" lon="5.98255">
        <ele>859.77</ele>
        <time>2014-08-26T09:07:58Z</time>
      </trkpt>
      <trkpt lat="44.34427" lon="5.98259">
        <ele>860.48</ele>
        <time>2014-08-26T09:08:06Z</time>
      </trkpt>
      <trkpt lat="44.34431" lon="5.98265">
        <ele>860.65</ele>
        <time>2014-08-26T09:08:09Z</time>
      </trkpt>
      <trkpt lat="44.34444" lon="5.98288">
        <ele>859.67</ele>
        <time>2014-08-26T09:08:21Z</time>
      </trkpt>
      <trkpt lat="44.3444" lon="5.98326">
        <ele>856.13</ele>
        <time>2014-08-26T09:08:32Z</time>
      </trkpt>
      <trkpt lat="44.34433" lon="5.98354">
        <ele>852.85</ele>
        <time>2014-08-26T09:08:43Z</time>
      </trkpt>
      <trkpt lat="44.34433" lon="5.9837">
        <ele>849.73</ele>
        <time>2014-08-26T09:08:51Z</time>
      </trkpt>
      <trkpt lat="44.34433" lon="5.98373">
        <ele>849.38</ele>
        <time>2014-08-26T09:08:52Z</time>
      </trkpt>
      <trkpt lat="44.34439" lon="5.98396">
        <ele>845.99</ele>
        <time>2014-08-26T09:08:59Z</time>
      </trkpt>
      <trkpt lat="44.34441" lon="5.98415">
        <ele>842.76</ele>
        <time>2014-08-26T09:09:06Z</time>
      </trkpt>
      <trkpt lat="44.34439" lon="5.98419">
        <ele>841.34</ele>
        <time>2014-08-26T09:09:41Z</time>
      </trkpt>
      <trkpt lat="44.34438" lon="5.98418">
        <ele>841.45</ele>
        <time>2014-08-26T09:10:07Z</time>
      </trkpt>
      <trkpt lat="44.34444" lon="5.98433">
        <ele>841.2</ele>
        <time>2014-08-26T09:10:28Z</time>
      </trkpt>
      <trkpt lat="44.34446" lon="5.9847">
        <ele>840.47</ele>
        <time>2014-08-26T09:10:39Z</time>
      </trkpt>
      <trkpt lat="44.34441" lon="5.98515">
        <ele>841.98</ele>
        <time>2014-08-26T09:10:54Z</time>
      </trkpt>
      <trkpt lat="44.34435" lon="5.98534">
        <ele>843.17</ele>
        <time>2014-08-26T09:11:03Z</time>
      </trkpt>
      <trkpt lat="44.34434" lon="5.98536">
        <ele>843.28</ele>
        <time>2014-08-26T09:11:04Z</time>
      </trkpt>
      <trkpt lat="44.34433" lon="5.98537">
        <ele>843.37</ele>
        <time>2014-08-26T09:11:05Z</time>
      </trkpt>
      <trkpt lat="44.34432" lon="5.98539">
        <ele>843.84</ele>
        <time>2014-08-26T09:11:22Z</time>
      </trkpt>
      <trkpt lat="44.34438" lon="5.98542">
        <ele>843.94</ele>
        <time>2014-08-26T09:12:50Z</time>
      </trkpt>
      <trkpt lat="44.3444" lon="5.98544">
        <ele>844.05</ele>
        <time>2014-08-26T09:12:51Z</time>
      </trkpt>
      <trkpt lat="44.34441" lon="5.98546">
        <ele>844.16</ele>
        <time>2014-08-26T09:12:52Z</time>
      </trkpt>
      <trkpt lat="44.34443" lon="5.98549">
        <ele>844.3</ele>
        <time>2014-08-26T09:12:53Z</time>
      </trkpt>
      <trkpt lat="44.34444" lon="5.98552">
        <ele>844.44</ele>
        <time>2014-08-26T09:12:54Z</time>
      </trkpt>
      <trkpt lat="44.34445" lon="5.98554">
        <ele>844.57</ele>
        <time>2014-08-26T09:12:55Z</time>
      </trkpt>
      <trkpt lat="44.34445" lon="5.98598">
        <ele>846.08</ele>
        <time>2014-08-26T09:13:11Z</time>
      </trkpt>
      <trkpt lat="44.34423" lon="5.98626">
        <ele>848.73</ele>
        <time>2014-08-26T09:13:27Z</time>
      </trkpt>
      <trkpt lat="44.3439" lon="5.98637">
        <ele>850.11</ele>
        <time>2014-08-26T09:13:41Z</time>
      </trkpt>
      <trkpt lat="44.34331" lon="5.98661">
        <ele>847.85</ele>
        <time>2014-08-26T09:13:53Z</time>
      </trkpt>
      <trkpt lat="44.34294" lon="5.98661">
        <ele>845.94</ele>
        <time>2014-08-26T09:13:59Z</time>
      </trkpt>
      <trkpt lat="44.34288" lon="5.98659">
        <ele>845.73</ele>
        <time>2014-08-26T09:14:00Z</time>
      </trkpt>
      <trkpt lat="44.34284" lon="5.98657">
        <ele>845.55</ele>
        <time>2014-08-26T09:14:01Z</time>
      </trkpt>
      <trkpt lat="44.34279" lon="5.98653">
        <ele>845.41</ele>
        <time>2014-08-26T09:14:02Z</time>
      </trkpt>
      <trkpt lat="44.34275" lon="5.9865">
        <ele>845.3</ele>
        <time>2014-08-26T09:14:03Z</time>
      </trkpt>
      <trkpt lat="44.34272" lon="5.98645">
        <ele>845.22</ele>
        <time>2014-08-26T09:14:04Z</time>
      </trkpt>
      <trkpt lat="44.3427" lon="5.98642">
        <ele>845.16</ele>
        <time>2014-08-26T09:14:05Z</time>
      </trkpt>
      <trkpt lat="44.34268" lon="5.98639">
        <ele>845.12</ele>
        <time>2014-08-26T09:14:06Z</time>
      </trkpt>
      <trkpt lat="44.34251" lon="5.98622">
        <ele>847.11</ele>
        <time>2014-08-26T09:14:18Z</time>
      </trkpt>
      <trkpt lat="44.34242" lon="5.98609">
        <ele>849.13</ele>
        <time>2014-08-26T09:14:30Z</time>
      </trkpt>
      <trkpt lat="44.34235" lon="5.98606">
        <ele>849.36</ele>
        <time>2014-08-26T09:14:40Z</time>
      </trkpt>
      <trkpt lat="44.34233" lon="5.98606">
        <ele>849.38</ele>
        <time>2014-08-26T09:14:41Z</time>
      </trkpt>
      <trkpt lat="44.34232" lon="5.98605">
        <ele>849.4</ele>
        <time>2014-08-26T09:14:42Z</time>
      </trkpt>
      <trkpt lat="44.3423" lon="5.98604">
        <ele>849.43</ele>
        <time>2014-08-26T09:14:43Z</time>
      </trkpt>
      <trkpt lat="44.34228" lon="5.98604">
        <ele>849.48</ele>
        <time>2014-08-26T09:14:44Z</time>
      </trkpt>
      <trkpt lat="44.34226" lon="5.98603">
        <ele>849.52</ele>
        <time>2014-08-26T09:14:45Z</time>
      </trkpt>
      <trkpt lat="44.34203" lon="5.98606">
        <ele>849.61</ele>
        <time>2014-08-26T09:14:57Z</time>
      </trkpt>
      <trkpt lat="44.3419" lon="5.98592">
        <ele>849.73</ele>
        <time>2014-08-26T09:15:06Z</time>
      </trkpt>
      <trkpt lat="44.34189" lon="5.98591">
        <ele>849.83</ele>
        <time>2014-08-26T09:15:07Z</time>
      </trkpt>
      <trkpt lat="44.34188" lon="5.98589">
        <ele>849.92</ele>
        <time>2014-08-26T09:15:08Z</time>
      </trkpt>
      <trkpt lat="44.34186" lon="5.98588">
        <ele>849.98</ele>
        <time>2014-08-26T09:15:09Z</time>
      </trkpt>
      <trkpt lat="44.34184" lon="5.98588">
        <ele>850.05</ele>
        <time>2014-08-26T09:15:10Z</time>
      </trkpt>
      <trkpt lat="44.34164" lon="5.98589">
        <ele>851</ele>
        <time>2014-08-26T09:15:21Z</time>
      </trkpt>
      <trkpt lat="44.34138" lon="5.98598">
        <ele>851.73</ele>
        <time>2014-08-26T09:15:33Z</time>
      </trkpt>
      <trkpt lat="44.34113" lon="5.98614">
        <ele>853.79</ele>
        <time>2014-08-26T09:15:46Z</time>
      </trkpt>
      <trkpt lat="44.3411" lon="5.98612">
        <ele>854</ele>
        <time>2014-08-26T09:15:47Z</time>
      </trkpt>
      <trkpt lat="44.34108" lon="5.98611">
        <ele>854.07</ele>
        <time>2014-08-26T09:15:48Z</time>
      </trkpt>
      <trkpt lat="44.34106" lon="5.98608">
        <ele>854.14</ele>
        <time>2014-08-26T09:15:49Z</time>
      </trkpt>
      <trkpt lat="44.34105" lon="5.98605">
        <ele>854.23</ele>
        <time>2014-08-26T09:15:50Z</time>
      </trkpt>
      <trkpt lat="44.34104" lon="5.98602">
        <ele>854.33</ele>
        <time>2014-08-26T09:15:51Z</time>
      </trkpt>
      <trkpt lat="44.34103" lon="5.98599">
        <ele>854.42</ele>
        <time>2014-08-26T09:15:52Z</time>
      </trkpt>
      <trkpt lat="44.34103" lon="5.98596">
        <ele>854.51</ele>
        <time>2014-08-26T09:15:53Z</time>
      </trkpt>
      <trkpt lat="44.34103" lon="5.98593">
        <ele>854.61</ele>
        <time>2014-08-26T09:15:54Z</time>
      </trkpt>
      <trkpt lat="44.34103" lon="5.9859">
        <ele>854.71</ele>
        <time>2014-08-26T09:15:55Z</time>
      </trkpt>
      <trkpt lat="44.34104" lon="5.98587">
        <ele>854.8</ele>
        <time>2014-08-26T09:15:56Z</time>
      </trkpt>
      <trkpt lat="44.34104" lon="5.98566">
        <ele>855.81</ele>
        <time>2014-08-26T09:16:04Z</time>
      </trkpt>
      <trkpt lat="44.34103" lon="5.98564">
        <ele>855.9</ele>
        <time>2014-08-26T09:16:05Z</time>
      </trkpt>
      <trkpt lat="44.34103" lon="5.98562">
        <ele>856.01</ele>
        <time>2014-08-26T09:16:06Z</time>
      </trkpt>
      <trkpt lat="44.341" lon="5.98558">
        <ele>856.37</ele>
        <time>2014-08-26T09:16:09Z</time>
      </trkpt>
      <trkpt lat="44.34095" lon="5.98556">
        <ele>857.11</ele>
        <time>2014-08-26T09:16:20Z</time>
      </trkpt>
      <trkpt lat="44.34094" lon="5.98555">
        <ele>857.13</ele>
        <time>2014-08-26T09:16:21Z</time>
      </trkpt>
      <trkpt lat="44.34093" lon="5.98554">
        <ele>857.15</ele>
        <time>2014-08-26T09:16:22Z</time>
      </trkpt>
      <trkpt lat="44.34092" lon="5.98554">
        <ele>857.18</ele>
        <time>2014-08-26T09:16:23Z</time>
      </trkpt>
      <trkpt lat="44.34091" lon="5.98553">
        <ele>857.2</ele>
        <time>2014-08-26T09:16:24Z</time>
      </trkpt>
      <trkpt lat="44.3409" lon="5.98552">
        <ele>857.23</ele>
        <time>2014-08-26T09:16:25Z</time>
      </trkpt>
      <trkpt lat="44.34089" lon="5.98551">
        <ele>857.28</ele>
        <time>2014-08-26T09:16:26Z</time>
      </trkpt>
      <trkpt lat="44.34089" lon="5.98551">
        <ele>857.35</ele>
        <time>2014-08-26T09:16:27Z</time>
      </trkpt>
      <trkpt lat="44.34088" lon="5.98548">
        <ele>857.45</ele>
        <time>2014-08-26T09:16:29Z</time>
      </trkpt>
      <trkpt lat="44.34088" lon="5.98546">
        <ele>857.53</ele>
        <time>2014-08-26T09:16:30Z</time>
      </trkpt>
      <trkpt lat="44.34086" lon="5.98541">
        <ele>857.76</ele>
        <time>2014-08-26T09:16:32Z</time>
      </trkpt>
      <trkpt lat="44.34086" lon="5.98539">
        <ele>857.85</ele>
        <time>2014-08-26T09:16:33Z</time>
      </trkpt>
      <trkpt lat="44.34085" lon="5.98538">
        <ele>857.92</ele>
        <time>2014-08-26T09:16:34Z</time>
      </trkpt>
      <trkpt lat="44.34085" lon="5.98536">
        <ele>858</ele>
        <time>2014-08-26T09:16:35Z</time>
      </trkpt>
      <trkpt lat="44.34085" lon="5.98534">
        <ele>858.06</ele>
        <time>2014-08-26T09:16:36Z</time>
      </trkpt>
      <trkpt lat="44.34079" lon="5.98513">
        <ele>858.84</ele>
        <time>2014-08-26T09:16:45Z</time>
      </trkpt>
      <trkpt lat="44.34079" lon="5.98511">
        <ele>858.9</ele>
        <time>2014-08-26T09:16:46Z</time>
      </trkpt>
      <trkpt lat="44.34079" lon="5.98508">
        <ele>858.99</ele>
        <time>2014-08-26T09:16:47Z</time>
      </trkpt>
      <trkpt lat="44.34079" lon="5.98506">
        <ele>859.09</ele>
        <time>2014-08-26T09:16:48Z</time>
      </trkpt>
      <trkpt lat="44.34079" lon="5.98503">
        <ele>859.2</ele>
        <time>2014-08-26T09:16:49Z</time>
      </trkpt>
      <trkpt lat="44.34072" lon="5.98464">
        <ele>860.96</ele>
        <time>2014-08-26T09:17:04Z</time>
      </trkpt>
      <trkpt lat="44.34066" lon="5.98447">
        <ele>861.93</ele>
        <time>2014-08-26T09:17:11Z</time>
      </trkpt>
      <trkpt lat="44.34064" lon="5.98445">
        <ele>862.1</ele>
        <time>2014-08-26T09:17:12Z</time>
      </trkpt>
      <trkpt lat="44.34064" lon="5.98443">
        <ele>862.27</ele>
        <time>2014-08-26T09:17:13Z</time>
      </trkpt>
      <trkpt lat="44.34056" lon="5.98432">
        <ele>863.28</ele>
        <time>2014-08-26T09:17:19Z</time>
      </trkpt>
      <trkpt lat="44.34054" lon="5.98431">
        <ele>863.43</ele>
        <time>2014-08-26T09:17:20Z</time>
      </trkpt>
      <trkpt lat="44.34053" lon="5.98431">
        <ele>863.57</ele>
        <time>2014-08-26T09:17:21Z</time>
      </trkpt>
      <trkpt lat="44.34029" lon="5.98436">
        <ele>865.7</ele>
        <time>2014-08-26T09:17:35Z</time>
      </trkpt>
      <trkpt lat="44.34007" lon="5.98423">
        <ele>866.79</ele>
        <time>2014-08-26T09:17:49Z</time>
      </trkpt>
      <trkpt lat="44.33984" lon="5.98412">
        <ele>868.65</ele>
        <time>2014-08-26T09:18:03Z</time>
      </trkpt>
      <trkpt lat="44.33967" lon="5.98423">
        <ele>870.25</ele>
        <time>2014-08-26T09:18:16Z</time>
      </trkpt>
      <trkpt lat="44.33967" lon="5.98425">
        <ele>870.36</ele>
        <time>2014-08-26T09:18:17Z</time>
      </trkpt>
      <trkpt lat="44.33968" lon="5.98428">
        <ele>870.41</ele>
        <time>2014-08-26T09:18:18Z</time>
      </trkpt>
      <trkpt lat="44.33975" lon="5.98473">
        <ele>871.62</ele>
        <time>2014-08-26T09:18:36Z</time>
      </trkpt>
      <trkpt lat="44.33981" lon="5.98504">
        <ele>873.96</ele>
        <time>2014-08-26T09:18:49Z</time>
      </trkpt>
      <trkpt lat="44.33981" lon="5.98524">
        <ele>875.25</ele>
        <time>2014-08-26T09:18:59Z</time>
      </trkpt>
      <trkpt lat="44.33981" lon="5.98526">
        <ele>875.36</ele>
        <time>2014-08-26T09:19:00Z</time>
      </trkpt>
      <trkpt lat="44.33978" lon="5.98556">
        <ele>877.15</ele>
        <time>2014-08-26T09:19:13Z</time>
      </trkpt>
      <trkpt lat="44.33987" lon="5.9859">
        <ele>879.21</ele>
        <time>2014-08-26T09:19:28Z</time>
      </trkpt>
      <trkpt lat="44.34002" lon="5.98619">
        <ele>882.01</ele>
        <time>2014-08-26T09:19:43Z</time>
      </trkpt>
      <trkpt lat="44.34013" lon="5.98653">
        <ele>884.68</ele>
        <time>2014-08-26T09:19:59Z</time>
      </trkpt>
      <trkpt lat="44.34027" lon="5.98685">
        <ele>887.77</ele>
        <time>2014-08-26T09:20:14Z</time>
      </trkpt>
      <trkpt lat="44.3403" lon="5.98692">
        <ele>888.79</ele>
        <time>2014-08-26T09:20:19Z</time>
      </trkpt>
      <trkpt lat="44.34031" lon="5.98714">
        <ele>891.05</ele>
        <time>2014-08-26T09:20:35Z</time>
      </trkpt>
      <trkpt lat="44.34031" lon="5.98715">
        <ele>891.12</ele>
        <time>2014-08-26T09:20:36Z</time>
      </trkpt>
      <trkpt lat="44.34015" lon="5.98733">
        <ele>892.23</ele>
        <time>2014-08-26T09:20:51Z</time>
      </trkpt>
      <trkpt lat="44.33998" lon="5.98751">
        <ele>893.69</ele>
        <time>2014-08-26T09:21:05Z</time>
      </trkpt>
      <trkpt lat="44.33971" lon="5.9878">
        <ele>892.97</ele>
        <time>2014-08-26T09:21:20Z</time>
      </trkpt>
      <trkpt lat="44.3395" lon="5.98807">
        <ele>891.15</ele>
        <time>2014-08-26T09:21:28Z</time>
      </trkpt>
      <trkpt lat="44.33946" lon="5.98809">
        <ele>890.88</ele>
        <time>2014-08-26T09:21:29Z</time>
      </trkpt>
      <trkpt lat="44.33942" lon="5.98809">
        <ele>890.63</ele>
        <time>2014-08-26T09:21:30Z</time>
      </trkpt>
      <trkpt lat="44.33919" lon="5.98809">
        <ele>890.06</ele>
        <time>2014-08-26T09:21:40Z</time>
      </trkpt>
      <trkpt lat="44.339" lon="5.98815">
        <ele>890.32</ele>
        <time>2014-08-26T09:21:51Z</time>
      </trkpt>
      <trkpt lat="44.33899" lon="5.98814">
        <ele>890.97</ele>
        <time>2014-08-26T09:22:14Z</time>
      </trkpt>
      <trkpt lat="44.33901" lon="5.98815">
        <ele>890.42</ele>
        <time>2014-08-26T09:22:33Z</time>
      </trkpt>
      <trkpt lat="44.33902" lon="5.98814">
        <ele>890.4</ele>
        <time>2014-08-26T09:22:50Z</time>
      </trkpt>
      <trkpt lat="44.33901" lon="5.98815">
        <ele>890.85</ele>
        <time>2014-08-26T09:23:10Z</time>
      </trkpt>
      <trkpt lat="44.339" lon="5.98818">
        <ele>890.59</ele>
        <time>2014-08-26T09:23:30Z</time>
      </trkpt>
      <trkpt lat="44.33899" lon="5.98819">
        <ele>890.78</ele>
        <time>2014-08-26T09:23:48Z</time>
      </trkpt>
      <trkpt lat="44.33897" lon="5.98817">
        <ele>890.91</ele>
        <time>2014-08-26T09:24:06Z</time>
      </trkpt>
      <trkpt lat="44.33898" lon="5.98816">
        <ele>891</ele>
        <time>2014-08-26T09:24:21Z</time>
      </trkpt>
      <trkpt lat="44.33898" lon="5.98815">
        <ele>891.45</ele>
        <time>2014-08-26T09:24:37Z</time>
      </trkpt>
      <trkpt lat="44.33893" lon="5.98815">
        <ele>891.93</ele>
        <time>2014-08-26T09:24:54Z</time>
      </trkpt>
      <trkpt lat="44.33888" lon="5.98817">
        <ele>891.87</ele>
        <time>2014-08-26T09:24:57Z</time>
      </trkpt>
      <trkpt lat="44.33887" lon="5.98818">
        <ele>891.83</ele>
        <time>2014-08-26T09:24:58Z</time>
      </trkpt>
      <trkpt lat="44.33885" lon="5.98819">
        <ele>891.79</ele>
        <time>2014-08-26T09:24:59Z</time>
      </trkpt>
      <trkpt lat="44.3385" lon="5.98831">
        <ele>890.95</ele>
        <time>2014-08-26T09:25:10Z</time>
      </trkpt>
      <trkpt lat="44.33833" lon="5.98839">
        <ele>888.82</ele>
        <time>2014-08-26T09:25:20Z</time>
      </trkpt>
      <trkpt lat="44.33827" lon="5.9884">
        <ele>887.73</ele>
        <time>2014-08-26T09:25:30Z</time>
      </trkpt>
      <trkpt lat="44.33787" lon="5.98844">
        <ele>885.48</ele>
        <time>2014-08-26T09:25:40Z</time>
      </trkpt>
      <trkpt lat="44.33759" lon="5.98849">
        <ele>882.32</ele>
        <time>2014-08-26T09:25:46Z</time>
      </trkpt>
      <trkpt lat="44.33743" lon="5.98857">
        <ele>881.18</ele>
        <time>2014-08-26T09:25:50Z</time>
      </trkpt>
      <trkpt lat="44.33738" lon="5.98859">
        <ele>880.81</ele>
        <time>2014-08-26T09:25:51Z</time>
      </trkpt>
      <trkpt lat="44.33688" lon="5.98877">
        <ele>877.45</ele>
        <time>2014-08-26T09:26:02Z</time>
      </trkpt>
      <trkpt lat="44.3367" lon="5.98896">
        <ele>874.33</ele>
        <time>2014-08-26T09:26:09Z</time>
      </trkpt>
      <trkpt lat="44.33666" lon="5.98912">
        <ele>871.32</ele>
        <time>2014-08-26T09:26:15Z</time>
      </trkpt>
      <trkpt lat="44.33666" lon="5.98912">
        <ele>871.05</ele>
        <time>2014-08-26T09:26:16Z</time>
      </trkpt>
      <trkpt lat="44.33667" lon="5.98912">
        <ele>869.91</ele>
        <time>2014-08-26T09:26:35Z</time>
      </trkpt>
      <trkpt lat="44.33665" lon="5.98911">
        <ele>869.93</ele>
        <time>2014-08-26T09:26:39Z</time>
      </trkpt>
      <trkpt lat="44.33664" lon="5.9891">
        <ele>869.92</ele>
        <time>2014-08-26T09:26:40Z</time>
      </trkpt>
      <trkpt lat="44.33662" lon="5.9891">
        <ele>869.32</ele>
        <time>2014-08-26T09:26:56Z</time>
      </trkpt>
      <trkpt lat="44.33664" lon="5.98914">
        <ele>868.35</ele>
        <time>2014-08-26T09:29:23Z</time>
      </trkpt>
      <trkpt lat="44.33664" lon="5.98927">
        <ele>869.58</ele>
        <time>2014-08-26T09:29:36Z</time>
      </trkpt>
      <trkpt lat="44.33662" lon="5.9894">
        <ele>869.42</ele>
        <time>2014-08-26T09:29:45Z</time>
      </trkpt>
      <trkpt lat="44.33654" lon="5.98983">
        <ele>866.94</ele>
        <time>2014-08-26T09:29:57Z</time>
      </trkpt>
      <trkpt lat="44.33641" lon="5.99008">
        <ele>864.25</ele>
        <time>2014-08-26T09:30:14Z</time>
      </trkpt>
      <trkpt lat="44.33637" lon="5.9902">
        <ele>859.09</ele>
        <time>2014-08-26T09:40:09Z</time>
      </trkpt>
      <trkpt lat="44.33643" lon="5.99034">
        <ele>860.5</ele>
        <time>2014-08-26T09:40:23Z</time>
      </trkpt>
      <trkpt lat="44.33662" lon="5.99078">
        <ele>861.42</ele>
        <time>2014-08-26T09:40:41Z</time>
      </trkpt>
      <trkpt lat="44.33698" lon="5.99094">
        <ele>862.53</ele>
        <time>2014-08-26T09:40:56Z</time>
      </trkpt>
      <trkpt lat="44.33712" lon="5.99091">
        <ele>862.16</ele>
        <time>2014-08-26T09:41:00Z</time>
      </trkpt>
      <trkpt lat="44.33733" lon="5.99098">
        <ele>861.18</ele>
        <time>2014-08-26T09:41:05Z</time>
      </trkpt>
      <trkpt lat="44.33772" lon="5.99105">
        <ele>858.61</ele>
        <time>2014-08-26T09:41:13Z</time>
      </trkpt>
      <trkpt lat="44.33776" lon="5.99128">
        <ele>857.85</ele>
        <time>2014-08-26T09:41:24Z</time>
      </trkpt>
      <trkpt lat="44.33773" lon="5.99152">
        <ele>859.86</ele>
        <time>2014-08-26T09:41:35Z</time>
      </trkpt>
      <trkpt lat="44.33771" lon="5.99185">
        <ele>862.04</ele>
        <time>2014-08-26T09:41:49Z</time>
      </trkpt>
      <trkpt lat="44.33768" lon="5.99227">
        <ele>863.81</ele>
        <time>2014-08-26T09:42:06Z</time>
      </trkpt>
      <trkpt lat="44.33769" lon="5.99265">
        <ele>866.26</ele>
        <time>2014-08-26T09:42:22Z</time>
      </trkpt>
      <trkpt lat="44.33792" lon="5.99296">
        <ele>865.83</ele>
        <time>2014-08-26T09:42:35Z</time>
      </trkpt>
      <trkpt lat="44.33796" lon="5.99336">
        <ele>864.32</ele>
        <time>2014-08-26T09:42:45Z</time>
      </trkpt>
      <trkpt lat="44.33779" lon="5.99365">
        <ele>865.55</ele>
        <time>2014-08-26T09:42:59Z</time>
      </trkpt>
      <trkpt lat="44.33765" lon="5.99389">
        <ele>866.77</ele>
        <time>2014-08-26T09:43:10Z</time>
      </trkpt>
      <trkpt lat="44.33757" lon="5.99412">
        <ele>867.58</ele>
        <time>2014-08-26T09:43:20Z</time>
      </trkpt>
      <trkpt lat="44.33762" lon="5.99447">
        <ele>869.26</ele>
        <time>2014-08-26T09:43:33Z</time>
      </trkpt>
      <trkpt lat="44.33772" lon="5.99484">
        <ele>869.55</ele>
        <time>2014-08-26T09:43:43Z</time>
      </trkpt>
      <trkpt lat="44.33775" lon="5.99545">
        <ele>869.38</ele>
        <time>2014-08-26T09:43:57Z</time>
      </trkpt>
      <trkpt lat="44.33768" lon="5.99585">
        <ele>869.47</ele>
        <time>2014-08-26T09:44:07Z</time>
      </trkpt>
      <trkpt lat="44.33767" lon="5.99589">
        <ele>870.01</ele>
        <time>2014-08-26T09:44:20Z</time>
      </trkpt>
      <trkpt lat="44.33759" lon="5.99611">
        <ele>869.89</ele>
        <time>2014-08-26T09:44:36Z</time>
      </trkpt>
      <trkpt lat="44.33757" lon="5.99626">
        <ele>869.48</ele>
        <time>2014-08-26T09:44:39Z</time>
      </trkpt>
      <trkpt lat="44.33751" lon="5.99671">
        <ele>867.7</ele>
        <time>2014-08-26T09:44:46Z</time>
      </trkpt>
      <trkpt lat="44.33748" lon="5.99706">
        <ele>866.62</ele>
        <time>2014-08-26T09:44:52Z</time>
      </trkpt>
      <trkpt lat="44.33734" lon="5.99735">
        <ele>865.66</ele>
        <time>2014-08-26T09:44:59Z</time>
      </trkpt>
      <trkpt lat="44.33683" lon="5.99758">
        <ele>863.11</ele>
        <time>2014-08-26T09:45:13Z</time>
      </trkpt>
      <trkpt lat="44.33654" lon="5.99768">
        <ele>861.19</ele>
        <time>2014-08-26T09:45:22Z</time>
      </trkpt>
      <trkpt lat="44.33641" lon="5.99782">
        <ele>860.45</ele>
        <time>2014-08-26T09:45:25Z</time>
      </trkpt>
      <trkpt lat="44.33625" lon="5.998">
        <ele>858.94</ele>
        <time>2014-08-26T09:45:29Z</time>
      </trkpt>
      <trkpt lat="44.33607" lon="5.99808">
        <ele>857.76</ele>
        <time>2014-08-26T09:45:33Z</time>
      </trkpt>
      <trkpt lat="44.33595" lon="5.99808">
        <ele>857.48</ele>
        <time>2014-08-26T09:45:39Z</time>
      </trkpt>
      <trkpt lat="44.33578" lon="5.99812">
        <ele>859.75</ele>
        <time>2014-08-26T09:45:51Z</time>
      </trkpt>
      <trkpt lat="44.33563" lon="5.99829">
        <ele>860.96</ele>
        <time>2014-08-26T09:46:04Z</time>
      </trkpt>
      <trkpt lat="44.33545" lon="5.99851">
        <ele>862.31</ele>
        <time>2014-08-26T09:46:17Z</time>
      </trkpt>
      <trkpt lat="44.33527" lon="5.99878">
        <ele>863.04</ele>
        <time>2014-08-26T09:46:30Z</time>
      </trkpt>
      <trkpt lat="44.33514" lon="5.99875">
        <ele>862.71</ele>
        <time>2014-08-26T09:46:35Z</time>
      </trkpt>
      <trkpt lat="44.33508" lon="5.99873">
        <ele>862.73</ele>
        <time>2014-08-26T09:46:38Z</time>
      </trkpt>
      <trkpt lat="44.33489" lon="5.99887">
        <ele>865.23</ele>
        <time>2014-08-26T09:46:50Z</time>
      </trkpt>
      <trkpt lat="44.3348" lon="5.99892">
        <ele>865.99</ele>
        <time>2014-08-26T09:46:55Z</time>
      </trkpt>
      <trkpt lat="44.33471" lon="5.99892">
        <ele>866.76</ele>
        <time>2014-08-26T09:47:00Z</time>
      </trkpt>
      <trkpt lat="44.33459" lon="5.99903">
        <ele>868.33</ele>
        <time>2014-08-26T09:47:09Z</time>
      </trkpt>
      <trkpt lat="44.33438" lon="5.99932">
        <ele>871.01</ele>
        <time>2014-08-26T09:47:25Z</time>
      </trkpt>
      <trkpt lat="44.33428" lon="5.99948">
        <ele>871.47</ele>
        <time>2014-08-26T09:47:33Z</time>
      </trkpt>
      <trkpt lat="44.33408" lon="5.99973">
        <ele>871.72</ele>
        <time>2014-08-26T09:47:49Z</time>
      </trkpt>
      <trkpt lat="44.33376" lon="5.99985">
        <ele>870.69</ele>
        <time>2014-08-26T09:48:01Z</time>
      </trkpt>
      <trkpt lat="44.33354" lon="5.9998">
        <ele>871.34</ele>
        <time>2014-08-26T09:48:14Z</time>
      </trkpt>
      <trkpt lat="44.33353" lon="5.99981">
        <ele>871.96</ele>
        <time>2014-08-26T09:48:34Z</time>
      </trkpt>
      <trkpt lat="44.33351" lon="5.9998">
        <ele>871.99</ele>
        <time>2014-08-26T09:48:36Z</time>
      </trkpt>
      <trkpt lat="44.33348" lon="5.99985">
        <ele>871.24</ele>
        <time>2014-08-26T10:50:03Z</time>
      </trkpt>
      <trkpt lat="44.33344" lon="5.99991">
        <ele>870.61</ele>
        <time>2014-08-26T10:50:10Z</time>
      </trkpt>
      <trkpt lat="44.33327" lon="6.00011">
        <ele>869.33</ele>
        <time>2014-08-26T10:50:26Z</time>
      </trkpt>
      <trkpt lat="44.33317" lon="6.00025">
        <ele>867.02</ele>
        <time>2014-08-26T10:50:38Z</time>
      </trkpt>
      <trkpt lat="44.33308" lon="6.0004">
        <ele>866.36</ele>
        <time>2014-08-26T10:50:47Z</time>
      </trkpt>
      <trkpt lat="44.33302" lon="6.00046">
        <ele>864.37</ele>
        <time>2014-08-26T10:50:59Z</time>
      </trkpt>
      <trkpt lat="44.33298" lon="6.00049">
        <ele>863.97</ele>
        <time>2014-08-26T10:51:08Z</time>
      </trkpt>
      <trkpt lat="44.33296" lon="6.00051">
        <ele>863.91</ele>
        <time>2014-08-26T10:51:10Z</time>
      </trkpt>
      <trkpt lat="44.33292" lon="6.00054">
        <ele>863.53</ele>
        <time>2014-08-26T10:51:13Z</time>
      </trkpt>
      <trkpt lat="44.33281" lon="6.00064">
        <ele>861.82</ele>
        <time>2014-08-26T10:51:21Z</time>
      </trkpt>
      <trkpt lat="44.33271" lon="6.00088">
        <ele>859.99</ele>
        <time>2014-08-26T10:51:30Z</time>
      </trkpt>
      <trkpt lat="44.33256" lon="6.00119">
        <ele>858.53</ele>
        <time>2014-08-26T10:51:39Z</time>
      </trkpt>
      <trkpt lat="44.33249" lon="6.0013">
        <ele>858.2</ele>
        <time>2014-08-26T10:51:43Z</time>
      </trkpt>
      <trkpt lat="44.33236" lon="6.00157">
        <ele>858.04</ele>
        <time>2014-08-26T10:51:53Z</time>
      </trkpt>
      <trkpt lat="44.33215" lon="6.00186">
        <ele>859.03</ele>
        <time>2014-08-26T10:52:09Z</time>
      </trkpt>
      <trkpt lat="44.33213" lon="6.00188">
        <ele>859.04</ele>
        <time>2014-08-26T10:52:11Z</time>
      </trkpt>
      <trkpt lat="44.33202" lon="6.00208">
        <ele>859.45</ele>
        <time>2014-08-26T10:52:22Z</time>
      </trkpt>
      <trkpt lat="44.33198" lon="6.00216">
        <ele>859.79</ele>
        <time>2014-08-26T10:52:26Z</time>
      </trkpt>
      <trkpt lat="44.33183" lon="6.00237">
        <ele>860.98</ele>
        <time>2014-08-26T10:52:39Z</time>
      </trkpt>
      <trkpt lat="44.33173" lon="6.00251">
        <ele>862.39</ele>
        <time>2014-08-26T10:52:53Z</time>
      </trkpt>
      <trkpt lat="44.33164" lon="6.00265">
        <ele>862.81</ele>
        <time>2014-08-26T10:53:08Z</time>
      </trkpt>
      <trkpt lat="44.33156" lon="6.00277">
        <ele>863.25</ele>
        <time>2014-08-26T10:53:22Z</time>
      </trkpt>
      <trkpt lat="44.33146" lon="6.00293">
        <ele>864.25</ele>
        <time>2014-08-26T10:53:38Z</time>
      </trkpt>
      <trkpt lat="44.33134" lon="6.00309">
        <ele>865.17</ele>
        <time>2014-08-26T10:53:52Z</time>
      </trkpt>
      <trkpt lat="44.33117" lon="6.00316">
        <ele>865.38</ele>
        <time>2014-08-26T10:54:05Z</time>
      </trkpt>
      <trkpt lat="44.33097" lon="6.00323">
        <ele>865.43</ele>
        <time>2014-08-26T10:54:17Z</time>
      </trkpt>
      <trkpt lat="44.33078" lon="6.00327">
        <ele>865.58</ele>
        <time>2014-08-26T10:54:29Z</time>
      </trkpt>
      <trkpt lat="44.33075" lon="6.00328">
        <ele>865.65</ele>
        <time>2014-08-26T10:54:31Z</time>
      </trkpt>
      <trkpt lat="44.33073" lon="6.00328">
        <ele>865.69</ele>
        <time>2014-08-26T10:54:32Z</time>
      </trkpt>
      <trkpt lat="44.3307" lon="6.00329">
        <ele>865.72</ele>
        <time>2014-08-26T10:54:33Z</time>
      </trkpt>
      <trkpt lat="44.33068" lon="6.00329">
        <ele>865.72</ele>
        <time>2014-08-26T10:54:34Z</time>
      </trkpt>
      <trkpt lat="44.33065" lon="6.0033">
        <ele>865.68</ele>
        <time>2014-08-26T10:54:35Z</time>
      </trkpt>
      <trkpt lat="44.33064" lon="6.00331">
        <ele>865.58</ele>
        <time>2014-08-26T10:54:36Z</time>
      </trkpt>
      <trkpt lat="44.33062" lon="6.00331">
        <ele>865.45</ele>
        <time>2014-08-26T10:54:37Z</time>
      </trkpt>
      <trkpt lat="44.3306" lon="6.00331">
        <ele>865.32</ele>
        <time>2014-08-26T10:54:38Z</time>
      </trkpt>
      <trkpt lat="44.33059" lon="6.00331">
        <ele>865.18</ele>
        <time>2014-08-26T10:54:39Z</time>
      </trkpt>
      <trkpt lat="44.33058" lon="6.00331">
        <ele>865</ele>
        <time>2014-08-26T10:54:40Z</time>
      </trkpt>
      <trkpt lat="44.33054" lon="6.00328">
        <ele>863.49</ele>
        <time>2014-08-26T10:54:56Z</time>
      </trkpt>
      <trkpt lat="44.33051" lon="6.00327">
        <ele>863.17</ele>
        <time>2014-08-26T10:55:19Z</time>
      </trkpt>
      <trkpt lat="44.33036" lon="6.00314">
        <ele>862.3</ele>
        <time>2014-08-26T10:55:31Z</time>
      </trkpt>
      <trkpt lat="44.33032" lon="6.00309">
        <ele>861.56</ele>
        <time>2014-08-26T10:55:34Z</time>
      </trkpt>
      <trkpt lat="44.3303" lon="6.00307">
        <ele>861.29</ele>
        <time>2014-08-26T10:55:35Z</time>
      </trkpt>
      <trkpt lat="44.33029" lon="6.00306">
        <ele>861.02</ele>
        <time>2014-08-26T10:55:36Z</time>
      </trkpt>
      <trkpt lat="44.33024" lon="6.00298">
        <ele>860.02</ele>
        <time>2014-08-26T10:55:39Z</time>
      </trkpt>
      <trkpt lat="44.33007" lon="6.00282">
        <ele>856.27</ele>
        <time>2014-08-26T10:55:48Z</time>
      </trkpt>
      <trkpt lat="44.32989" lon="6.00268">
        <ele>853.14</ele>
        <time>2014-08-26T10:55:55Z</time>
      </trkpt>
      <trkpt lat="44.32975" lon="6.00257">
        <ele>850.06</ele>
        <time>2014-08-26T10:56:01Z</time>
      </trkpt>
      <trkpt lat="44.32958" lon="6.0025">
        <ele>846.6</ele>
        <time>2014-08-26T10:56:08Z</time>
      </trkpt>
      <trkpt lat="44.32937" lon="6.00243">
        <ele>843.43</ele>
        <time>2014-08-26T10:56:16Z</time>
      </trkpt>
      <trkpt lat="44.32919" lon="6.00238">
        <ele>840.33</ele>
        <time>2014-08-26T10:56:24Z</time>
      </trkpt>
      <trkpt lat="44.329" lon="6.00238">
        <ele>838.08</ele>
        <time>2014-08-26T10:56:32Z</time>
      </trkpt>
      <trkpt lat="44.32891" lon="6.00241">
        <ele>836.49</ele>
        <time>2014-08-26T10:56:37Z</time>
      </trkpt>
      <trkpt lat="44.32874" lon="6.0025">
        <ele>834.21</ele>
        <time>2014-08-26T10:56:47Z</time>
      </trkpt>
      <trkpt lat="44.3287" lon="6.0025">
        <ele>833.91</ele>
        <time>2014-08-26T10:56:49Z</time>
      </trkpt>
      <trkpt lat="44.32842" lon="6.00252">
        <ele>830.54</ele>
        <time>2014-08-26T10:57:01Z</time>
      </trkpt>
      <trkpt lat="44.32818" lon="6.00278">
        <ele>827.45</ele>
        <time>2014-08-26T10:57:12Z</time>
      </trkpt>
      <trkpt lat="44.32806" lon="6.00291">
        <ele>825.99</ele>
        <time>2014-08-26T10:57:20Z</time>
      </trkpt>
      <trkpt lat="44.32793" lon="6.00311">
        <ele>822.49</ele>
        <time>2014-08-26T10:57:33Z</time>
      </trkpt>
      <trkpt lat="44.32789" lon="6.00329">
        <ele>819.38</ele>
        <time>2014-08-26T10:57:43Z</time>
      </trkpt>
      <trkpt lat="44.32786" lon="6.00349">
        <ele>816</ele>
        <time>2014-08-26T10:57:52Z</time>
      </trkpt>
      <trkpt lat="44.32786" lon="6.00351">
        <ele>815.67</ele>
        <time>2014-08-26T10:57:53Z</time>
      </trkpt>
      <trkpt lat="44.32784" lon="6.00365">
        <ele>813.48</ele>
        <time>2014-08-26T10:58:01Z</time>
      </trkpt>
      <trkpt lat="44.32781" lon="6.0038">
        <ele>811.31</ele>
        <time>2014-08-26T10:58:09Z</time>
      </trkpt>
      <trkpt lat="44.32779" lon="6.00389">
        <ele>809.32</ele>
        <time>2014-08-26T10:58:15Z</time>
      </trkpt>
      <trkpt lat="44.32777" lon="6.00393">
        <ele>808.34</ele>
        <time>2014-08-26T10:58:23Z</time>
      </trkpt>
      <trkpt lat="44.32774" lon="6.00402">
        <ele>807.77</ele>
        <time>2014-08-26T10:58:29Z</time>
      </trkpt>
      <trkpt lat="44.3277" lon="6.00408">
        <ele>805.95</ele>
        <time>2014-08-26T10:58:40Z</time>
      </trkpt>
      <trkpt lat="44.32764" lon="6.00399">
        <ele>804.94</ele>
        <time>2014-08-26T10:58:58Z</time>
      </trkpt>
      <trkpt lat="44.32759" lon="6.00403">
        <ele>803.34</ele>
        <time>2014-08-26T10:59:09Z</time>
      </trkpt>
      <trkpt lat="44.32754" lon="6.00414">
        <ele>802.25</ele>
        <time>2014-08-26T10:59:15Z</time>
      </trkpt>
      <trkpt lat="44.32752" lon="6.00452">
        <ele>798.66</ele>
        <time>2014-08-26T10:59:26Z</time>
      </trkpt>
      <trkpt lat="44.32753" lon="6.0046">
        <ele>797.24</ele>
        <time>2014-08-26T10:59:29Z</time>
      </trkpt>
      <trkpt lat="44.32751" lon="6.00465">
        <ele>795.37</ele>
        <time>2014-08-26T10:59:43Z</time>
      </trkpt>
      <trkpt lat="44.3275" lon="6.00469">
        <ele>795.35</ele>
        <time>2014-08-26T10:59:44Z</time>
      </trkpt>
      <trkpt lat="44.32742" lon="6.005">
        <ele>794.22</ele>
        <time>2014-08-26T10:59:51Z</time>
      </trkpt>
      <trkpt lat="44.32738" lon="6.00517">
        <ele>792.04</ele>
        <time>2014-08-26T10:59:56Z</time>
      </trkpt>
      <trkpt lat="44.32729" lon="6.00526">
        <ele>790.18</ele>
        <time>2014-08-26T11:00:01Z</time>
      </trkpt>
      <trkpt lat="44.32713" lon="6.0055">
        <ele>786.58</ele>
        <time>2014-08-26T11:00:10Z</time>
      </trkpt>
      <trkpt lat="44.32703" lon="6.00551">
        <ele>784.63</ele>
        <time>2014-08-26T11:00:16Z</time>
      </trkpt>
      <trkpt lat="44.32701" lon="6.0055">
        <ele>784.45</ele>
        <time>2014-08-26T11:00:17Z</time>
      </trkpt>
      <trkpt lat="44.327" lon="6.0055">
        <ele>784.31</ele>
        <time>2014-08-26T11:00:18Z</time>
      </trkpt>
      <trkpt lat="44.32699" lon="6.00549">
        <ele>784.06</ele>
        <time>2014-08-26T11:00:19Z</time>
      </trkpt>
      <trkpt lat="44.32697" lon="6.00549">
        <ele>783.93</ele>
        <time>2014-08-26T11:00:20Z</time>
      </trkpt>
      <trkpt lat="44.32696" lon="6.00548">
        <ele>783.79</ele>
        <time>2014-08-26T11:00:21Z</time>
      </trkpt>
      <trkpt lat="44.32694" lon="6.00547">
        <ele>783.68</ele>
        <time>2014-08-26T11:00:22Z</time>
      </trkpt>
      <trkpt lat="44.32682" lon="6.00567">
        <ele>782.49</ele>
        <time>2014-08-26T11:00:32Z</time>
      </trkpt>
      <trkpt lat="44.32683" lon="6.00571">
        <ele>782.24</ele>
        <time>2014-08-26T11:00:33Z</time>
      </trkpt>
      <trkpt lat="44.32684" lon="6.00575">
        <ele>781.99</ele>
        <time>2014-08-26T11:00:34Z</time>
      </trkpt>
      <trkpt lat="44.32685" lon="6.00578">
        <ele>781.74</ele>
        <time>2014-08-26T11:00:35Z</time>
      </trkpt>
      <trkpt lat="44.32686" lon="6.00582">
        <ele>781.49</ele>
        <time>2014-08-26T11:00:36Z</time>
      </trkpt>
      <trkpt lat="44.32688" lon="6.00586">
        <ele>781.21</ele>
        <time>2014-08-26T11:00:37Z</time>
      </trkpt>
      <trkpt lat="44.32689" lon="6.0059">
        <ele>780.85</ele>
        <time>2014-08-26T11:00:38Z</time>
      </trkpt>
      <trkpt lat="44.32689" lon="6.00595">
        <ele>780.42</ele>
        <time>2014-08-26T11:00:39Z</time>
      </trkpt>
      <trkpt lat="44.32688" lon="6.00599">
        <ele>780.01</ele>
        <time>2014-08-26T11:00:40Z</time>
      </trkpt>
      <trkpt lat="44.32687" lon="6.00604">
        <ele>779.64</ele>
        <time>2014-08-26T11:00:41Z</time>
      </trkpt>
      <trkpt lat="44.32686" lon="6.00608">
        <ele>779.27</ele>
        <time>2014-08-26T11:00:42Z</time>
      </trkpt>
      <trkpt lat="44.3268" lon="6.00626">
        <ele>776.26</ele>
        <time>2014-08-26T11:00:48Z</time>
      </trkpt>
      <trkpt lat="44.3268" lon="6.00625">
        <ele>774.13</ele>
        <time>2014-08-26T11:01:08Z</time>
      </trkpt>
      <trkpt lat="44.3268" lon="6.00624">
        <ele>773.92</ele>
        <time>2014-08-26T11:01:38Z</time>
      </trkpt>
      <trkpt lat="44.32679" lon="6.00622">
        <ele>773.96</ele>
        <time>2014-08-26T11:02:03Z</time>
      </trkpt>
      <trkpt lat="44.3268" lon="6.00624">
        <ele>773.97</ele>
        <time>2014-08-26T11:02:19Z</time>
      </trkpt>
      <trkpt lat="44.32683" lon="6.00631">
        <ele>774.04</ele>
        <time>2014-08-26T11:02:23Z</time>
      </trkpt>
      <trkpt lat="44.32684" lon="6.00632">
        <ele>774.04</ele>
        <time>2014-08-26T11:02:24Z</time>
      </trkpt>
      <trkpt lat="44.32685" lon="6.00633">
        <ele>774.06</ele>
        <time>2014-08-26T11:02:25Z</time>
      </trkpt>
      <trkpt lat="44.32705" lon="6.0065">
        <ele>774.71</ele>
        <time>2014-08-26T11:02:40Z</time>
      </trkpt>
      <trkpt lat="44.32717" lon="6.0066">
        <ele>774.86</ele>
        <time>2014-08-26T11:02:48Z</time>
      </trkpt>
      <trkpt lat="44.32718" lon="6.00662">
        <ele>774.85</ele>
        <time>2014-08-26T11:02:49Z</time>
      </trkpt>
      <trkpt lat="44.32739" lon="6.00684">
        <ele>775.52</ele>
        <time>2014-08-26T11:03:03Z</time>
      </trkpt>
      <trkpt lat="44.32757" lon="6.00716">
        <ele>776.19</ele>
        <time>2014-08-26T11:03:16Z</time>
      </trkpt>
      <trkpt lat="44.32777" lon="6.00748">
        <ele>776.15</ele>
        <time>2014-08-26T11:03:29Z</time>
      </trkpt>
      <trkpt lat="44.32801" lon="6.00773">
        <ele>777.05</ele>
        <time>2014-08-26T11:03:43Z</time>
      </trkpt>
      <trkpt lat="44.32823" lon="6.00812">
        <ele>777.81</ele>
        <time>2014-08-26T11:03:58Z</time>
      </trkpt>
      <trkpt lat="44.32856" lon="6.00844">
        <ele>778.42</ele>
        <time>2014-08-26T11:04:13Z</time>
      </trkpt>
      <trkpt lat="44.32891" lon="6.00865">
        <ele>778.78</ele>
        <time>2014-08-26T11:04:26Z</time>
      </trkpt>
      <trkpt lat="44.32924" lon="6.00902">
        <ele>778.84</ele>
        <time>2014-08-26T11:04:40Z</time>
      </trkpt>
      <trkpt lat="44.32961" lon="6.00912">
        <ele>779.25</ele>
        <time>2014-08-26T11:04:53Z</time>
      </trkpt>
      <trkpt lat="44.32979" lon="6.00918">
        <ele>779.94</ele>
        <time>2014-08-26T11:05:05Z</time>
      </trkpt>
      <trkpt lat="44.3298" lon="6.00921">
        <ele>780.04</ele>
        <time>2014-08-26T11:05:13Z</time>
      </trkpt>
      <trkpt lat="44.32981" lon="6.00923">
        <ele>780.01</ele>
        <time>2014-08-26T11:05:14Z</time>
      </trkpt>
      <trkpt lat="44.32982" lon="6.00926">
        <ele>779.98</ele>
        <time>2014-08-26T11:05:15Z</time>
      </trkpt>
      <trkpt lat="44.32983" lon="6.0093">
        <ele>779.96</ele>
        <time>2014-08-26T11:05:16Z</time>
      </trkpt>
      <trkpt lat="44.32983" lon="6.00934">
        <ele>779.93</ele>
        <time>2014-08-26T11:05:17Z</time>
      </trkpt>
      <trkpt lat="44.32984" lon="6.00937">
        <ele>779.9</ele>
        <time>2014-08-26T11:05:18Z</time>
      </trkpt>
      <trkpt lat="44.32972" lon="6.00962">
        <ele>779.88</ele>
        <time>2014-08-26T11:05:27Z</time>
      </trkpt>
      <trkpt lat="44.32932" lon="6.00971">
        <ele>780.68</ele>
        <time>2014-08-26T11:05:40Z</time>
      </trkpt>
      <trkpt lat="44.32922" lon="6.01009">
        <ele>783.39</ele>
        <time>2014-08-26T11:05:52Z</time>
      </trkpt>
      <trkpt lat="44.32944" lon="6.01036">
        <ele>785.58</ele>
        <time>2014-08-26T11:06:04Z</time>
      </trkpt>
      <trkpt lat="44.32966" lon="6.01064">
        <ele>787.22</ele>
        <time>2014-08-26T11:06:16Z</time>
      </trkpt>
      <trkpt lat="44.3299" lon="6.01101">
        <ele>789</ele>
        <time>2014-08-26T11:06:31Z</time>
      </trkpt>
      <trkpt lat="44.33009" lon="6.0115">
        <ele>790.45</ele>
        <time>2014-08-26T11:06:47Z</time>
      </trkpt>
      <trkpt lat="44.33027" lon="6.01197">
        <ele>792.15</ele>
        <time>2014-08-26T11:07:02Z</time>
      </trkpt>
      <trkpt lat="44.33049" lon="6.01252">
        <ele>793.56</ele>
        <time>2014-08-26T11:07:19Z</time>
      </trkpt>
      <trkpt lat="44.33071" lon="6.01285">
        <ele>795.32</ele>
        <time>2014-08-26T11:07:32Z</time>
      </trkpt>
      <trkpt lat="44.33103" lon="6.01326">
        <ele>797.47</ele>
        <time>2014-08-26T11:07:49Z</time>
      </trkpt>
      <trkpt lat="44.33134" lon="6.01367">
        <ele>798.74</ele>
        <time>2014-08-26T11:08:05Z</time>
      </trkpt>
      <trkpt lat="44.33164" lon="6.01403">
        <ele>800.74</ele>
        <time>2014-08-26T11:08:20Z</time>
      </trkpt>
      <trkpt lat="44.33187" lon="6.01436">
        <ele>802.09</ele>
        <time>2014-08-26T11:08:34Z</time>
      </trkpt>
      <trkpt lat="44.33212" lon="6.01471">
        <ele>803.56</ele>
        <time>2014-08-26T11:08:48Z</time>
      </trkpt>
      <trkpt lat="44.33236" lon="6.01505">
        <ele>804.94</ele>
        <time>2014-08-26T11:09:01Z</time>
      </trkpt>
      <trkpt lat="44.3326" lon="6.01541">
        <ele>806.93</ele>
        <time>2014-08-26T11:09:16Z</time>
      </trkpt>
      <trkpt lat="44.33273" lon="6.01564">
        <ele>808.3</ele>
        <time>2014-08-26T11:09:27Z</time>
      </trkpt>
      <trkpt lat="44.33273" lon="6.01566">
        <ele>808.39</ele>
        <time>2014-08-26T11:09:28Z</time>
      </trkpt>
      <trkpt lat="44.33273" lon="6.01568">
        <ele>808.47</ele>
        <time>2014-08-26T11:09:29Z</time>
      </trkpt>
      <trkpt lat="44.33271" lon="6.0157">
        <ele>808.54</ele>
        <time>2014-08-26T11:09:30Z</time>
      </trkpt>
      <trkpt lat="44.3327" lon="6.01571">
        <ele>808.59</ele>
        <time>2014-08-26T11:09:31Z</time>
      </trkpt>
      <trkpt lat="44.33269" lon="6.01571">
        <ele>808.65</ele>
        <time>2014-08-26T11:09:32Z</time>
      </trkpt>
      <trkpt lat="44.33268" lon="6.01572">
        <ele>808.71</ele>
        <time>2014-08-26T11:09:33Z</time>
      </trkpt>
      <trkpt lat="44.33264" lon="6.01575">
        <ele>808.92</ele>
        <time>2014-08-26T11:09:37Z</time>
      </trkpt>
      <trkpt lat="44.33253" lon="6.01571">
        <ele>809.46</ele>
        <time>2014-08-26T11:09:49Z</time>
      </trkpt>
      <trkpt lat="44.33254" lon="6.01569">
        <ele>809.75</ele>
        <time>2014-08-26T11:10:11Z</time>
      </trkpt>
      <trkpt lat="44.33254" lon="6.01569">
        <ele>899.22</ele>
        <time>2014-08-26T11:10:23Z</time>
      </trkpt>
    </trkseg>
  </trk>
</gpx>